<?xml version="1.0" encoding="UTF-8" standalone="no" ?>
<gpx xmlns="http://www.topografix.com/GPX/1/1" xmlns:xsi="http://www.w3.org/2001/XMLSchema-instance" xsi:schemaLocation="http://www.topografix.com/GPX/1/1 http://www.topografix.com/GPX/1/1/gpx.xsd" version="1.1" creator="VisuGPX - https://www.visugpx.com">
  <metadata>
    <name>Circuit VTT de la barolière (Parc du Pilat : Loire 42)</name>
    <desc><![CDATA[ au départ de saint Paul en Jarez, circuit vtt du parc du pilat N°16, difficulté bleue (moyen)]]></desc>
  </metadata>
  <trk>
    <name><![CDATA[22 juil. 2012 08:18:52]]></name>
    <cmt><![CDATA[22 juil. 2012 08:18:52]]></cmt>
    <trkseg>
      <trkpt lat="45.46022" lon="4.58364">
        <ele>417.3</ele>
      </trkpt>
      <trkpt lat="45.47359" lon="4.58443">
        <ele>382.6</ele>
        <time>2012-07-22T06:19:10Z</time>
      </trkpt>
      <trkpt lat="45.4737" lon="4.58462">
        <ele>327</ele>
        <time>2012-07-22T06:19:47Z</time>
      </trkpt>
      <trkpt lat="45.47387" lon="4.58469">
        <ele>328</ele>
        <time>2012-07-22T06:19:55Z</time>
      </trkpt>
      <trkpt lat="45.47404" lon="4.58468">
        <ele>329</ele>
        <time>2012-07-22T06:20:02Z</time>
      </trkpt>
      <trkpt lat="45.47428" lon="4.58472">
        <ele>331</ele>
        <time>2012-07-22T06:20:15Z</time>
      </trkpt>
      <trkpt lat="45.47477" lon="4.58485">
        <ele>376.6</ele>
        <time>2012-07-22T06:20:26Z</time>
      </trkpt>
      <trkpt lat="45.47521" lon="4.58474">
        <ele>377.8</ele>
        <time>2012-07-22T06:20:34Z</time>
      </trkpt>
      <trkpt lat="45.47533" lon="4.58459">
        <ele>332</ele>
        <time>2012-07-22T06:20:39Z</time>
      </trkpt>
      <trkpt lat="45.47538" lon="4.58438">
        <ele>332</ele>
        <time>2012-07-22T06:20:48Z</time>
      </trkpt>
      <trkpt lat="45.47538" lon="4.58386">
        <ele>333</ele>
        <time>2012-07-22T06:21:14Z</time>
      </trkpt>
      <trkpt lat="45.47552" lon="4.58397">
        <ele>334</ele>
        <time>2012-07-22T06:21:22Z</time>
      </trkpt>
      <trkpt lat="45.47567" lon="4.58419">
        <ele>334</ele>
        <time>2012-07-22T06:21:33Z</time>
      </trkpt>
      <trkpt lat="45.4758" lon="4.58436">
        <ele>335</ele>
        <time>2012-07-22T06:21:45Z</time>
      </trkpt>
      <trkpt lat="45.47594" lon="4.58448">
        <ele>334</ele>
        <time>2012-07-22T06:21:52Z</time>
      </trkpt>
      <trkpt lat="45.47609" lon="4.58455">
        <ele>334</ele>
        <time>2012-07-22T06:21:58Z</time>
      </trkpt>
      <trkpt lat="45.4763" lon="4.58457">
        <ele>334</ele>
        <time>2012-07-22T06:22:06Z</time>
      </trkpt>
      <trkpt lat="45.47645" lon="4.58453">
        <ele>335</ele>
        <time>2012-07-22T06:22:13Z</time>
      </trkpt>
      <trkpt lat="45.47672" lon="4.5843">
        <ele>335</ele>
        <time>2012-07-22T06:22:32Z</time>
      </trkpt>
      <trkpt lat="45.47727" lon="4.58381">
        <ele>399.7</ele>
        <time>2012-07-22T06:23:06Z</time>
      </trkpt>
      <trkpt lat="45.4777" lon="4.58315">
        <ele>342</ele>
        <time>2012-07-22T06:23:54Z</time>
      </trkpt>
      <trkpt lat="45.47778" lon="4.58296">
        <ele>345</ele>
        <time>2012-07-22T06:24:16Z</time>
      </trkpt>
      <trkpt lat="45.47789" lon="4.58276">
        <ele>347</ele>
        <time>2012-07-22T06:24:24Z</time>
      </trkpt>
      <trkpt lat="45.47804" lon="4.58239">
        <ele>348</ele>
        <time>2012-07-22T06:24:35Z</time>
      </trkpt>
      <trkpt lat="45.47812" lon="4.58206">
        <ele>350</ele>
        <time>2012-07-22T06:24:52Z</time>
      </trkpt>
      <trkpt lat="45.4782" lon="4.58184">
        <ele>351</ele>
        <time>2012-07-22T06:24:57Z</time>
      </trkpt>
      <trkpt lat="45.47894" lon="4.5804">
        <ele>353</ele>
        <time>2012-07-22T06:25:30Z</time>
      </trkpt>
      <trkpt lat="45.47914" lon="4.58011">
        <ele>353</ele>
        <time>2012-07-22T06:25:40Z</time>
      </trkpt>
      <trkpt lat="45.4794" lon="4.57966">
        <ele>353</ele>
        <time>2012-07-22T06:25:54Z</time>
      </trkpt>
      <trkpt lat="45.47952" lon="4.57946">
        <ele>354</ele>
        <time>2012-07-22T06:26:00Z</time>
      </trkpt>
      <trkpt lat="45.47968" lon="4.57921">
        <ele>354</ele>
        <time>2012-07-22T06:26:08Z</time>
      </trkpt>
      <trkpt lat="45.47998" lon="4.57905">
        <ele>355</ele>
        <time>2012-07-22T06:26:16Z</time>
      </trkpt>
      <trkpt lat="45.48015" lon="4.57897">
        <ele>355</ele>
        <time>2012-07-22T06:26:19Z</time>
      </trkpt>
      <trkpt lat="45.48031" lon="4.57888">
        <ele>356</ele>
        <time>2012-07-22T06:26:22Z</time>
      </trkpt>
      <trkpt lat="45.48151" lon="4.57833">
        <ele>401.7</ele>
        <time>2012-07-22T06:26:39Z</time>
      </trkpt>
      <trkpt lat="45.48227" lon="4.57745">
        <ele>356</ele>
        <time>2012-07-22T06:26:51Z</time>
      </trkpt>
      <trkpt lat="45.48318" lon="4.57653">
        <ele>356</ele>
        <time>2012-07-22T06:27:04Z</time>
      </trkpt>
      <trkpt lat="45.48334" lon="4.57647">
        <ele>356</ele>
        <time>2012-07-22T06:27:06Z</time>
      </trkpt>
      <trkpt lat="45.48352" lon="4.57631">
        <ele>356</ele>
        <time>2012-07-22T06:27:11Z</time>
      </trkpt>
      <trkpt lat="45.48336" lon="4.57604">
        <ele>355</ele>
        <time>2012-07-22T06:27:22Z</time>
      </trkpt>
      <trkpt lat="45.48325" lon="4.57577">
        <ele>354</ele>
        <time>2012-07-22T06:27:32Z</time>
      </trkpt>
      <trkpt lat="45.48312" lon="4.5755">
        <ele>353</ele>
        <time>2012-07-22T06:27:49Z</time>
      </trkpt>
      <trkpt lat="45.48296" lon="4.57528">
        <ele>353</ele>
        <time>2012-07-22T06:28:00Z</time>
      </trkpt>
      <trkpt lat="45.48286" lon="4.57497">
        <ele>353</ele>
        <time>2012-07-22T06:28:15Z</time>
      </trkpt>
      <trkpt lat="45.48293" lon="4.57472">
        <ele>353</ele>
        <time>2012-07-22T06:28:25Z</time>
      </trkpt>
      <trkpt lat="45.48325" lon="4.57424">
        <ele>400.7</ele>
        <time>2012-07-22T06:28:39Z</time>
      </trkpt>
      <trkpt lat="45.48297" lon="4.57374">
        <ele>402.5</ele>
        <time>2012-07-22T06:28:52Z</time>
      </trkpt>
      <trkpt lat="45.48278" lon="4.57352">
        <ele>355</ele>
        <time>2012-07-22T06:29:00Z</time>
      </trkpt>
      <trkpt lat="45.48254" lon="4.57343">
        <ele>357</ele>
        <time>2012-07-22T06:29:11Z</time>
      </trkpt>
      <trkpt lat="45.48234" lon="4.5734">
        <ele>361</ele>
        <time>2012-07-22T06:29:21Z</time>
      </trkpt>
      <trkpt lat="45.48194" lon="4.57312">
        <ele>364</ele>
        <time>2012-07-22T06:29:49Z</time>
      </trkpt>
      <trkpt lat="45.48177" lon="4.57285">
        <ele>365</ele>
        <time>2012-07-22T06:29:57Z</time>
      </trkpt>
      <trkpt lat="45.4817" lon="4.57257">
        <ele>365</ele>
        <time>2012-07-22T06:30:02Z</time>
      </trkpt>
      <trkpt lat="45.48157" lon="4.57101">
        <ele>366</ele>
        <time>2012-07-22T06:30:21Z</time>
      </trkpt>
      <trkpt lat="45.48154" lon="4.57078">
        <ele>366</ele>
        <time>2012-07-22T06:30:24Z</time>
      </trkpt>
      <trkpt lat="45.48153" lon="4.57056">
        <ele>367</ele>
        <time>2012-07-22T06:30:28Z</time>
      </trkpt>
      <trkpt lat="45.48152" lon="4.57032">
        <ele>367</ele>
        <time>2012-07-22T06:30:33Z</time>
      </trkpt>
      <trkpt lat="45.48153" lon="4.57">
        <ele>368</ele>
        <time>2012-07-22T06:30:40Z</time>
      </trkpt>
      <trkpt lat="45.48155" lon="4.56974">
        <ele>368</ele>
        <time>2012-07-22T06:30:45Z</time>
      </trkpt>
      <trkpt lat="45.48154" lon="4.5695">
        <ele>369</ele>
        <time>2012-07-22T06:30:49Z</time>
      </trkpt>
      <trkpt lat="45.48153" lon="4.56924">
        <ele>369</ele>
        <time>2012-07-22T06:30:54Z</time>
      </trkpt>
      <trkpt lat="45.48148" lon="4.56895">
        <ele>370</ele>
        <time>2012-07-22T06:30:59Z</time>
      </trkpt>
      <trkpt lat="45.48142" lon="4.56838">
        <ele>370</ele>
        <time>2012-07-22T06:31:07Z</time>
      </trkpt>
      <trkpt lat="45.48142" lon="4.56816">
        <ele>370</ele>
        <time>2012-07-22T06:31:10Z</time>
      </trkpt>
      <trkpt lat="45.48141" lon="4.5679">
        <ele>370</ele>
        <time>2012-07-22T06:31:13Z</time>
      </trkpt>
      <trkpt lat="45.48122" lon="4.56776">
        <ele>370</ele>
        <time>2012-07-22T06:31:16Z</time>
      </trkpt>
      <trkpt lat="45.48105" lon="4.56766">
        <ele>370</ele>
        <time>2012-07-22T06:31:19Z</time>
      </trkpt>
      <trkpt lat="45.48091" lon="4.56758">
        <ele>371</ele>
        <time>2012-07-22T06:31:22Z</time>
      </trkpt>
      <trkpt lat="45.48073" lon="4.56747">
        <ele>371</ele>
        <time>2012-07-22T06:31:26Z</time>
      </trkpt>
      <trkpt lat="45.48058" lon="4.56733">
        <ele>372</ele>
        <time>2012-07-22T06:31:30Z</time>
      </trkpt>
      <trkpt lat="45.48043" lon="4.56712">
        <ele>372</ele>
        <time>2012-07-22T06:31:34Z</time>
      </trkpt>
      <trkpt lat="45.48031" lon="4.56694">
        <ele>372</ele>
        <time>2012-07-22T06:31:37Z</time>
      </trkpt>
      <trkpt lat="45.48018" lon="4.56678">
        <ele>372</ele>
        <time>2012-07-22T06:31:40Z</time>
      </trkpt>
      <trkpt lat="45.48006" lon="4.56663">
        <ele>373</ele>
        <time>2012-07-22T06:31:43Z</time>
      </trkpt>
      <trkpt lat="45.47993" lon="4.56646">
        <ele>373</ele>
        <time>2012-07-22T06:31:46Z</time>
      </trkpt>
      <trkpt lat="45.47979" lon="4.5663">
        <ele>373</ele>
        <time>2012-07-22T06:31:49Z</time>
      </trkpt>
      <trkpt lat="45.47965" lon="4.56617">
        <ele>373</ele>
        <time>2012-07-22T06:31:52Z</time>
      </trkpt>
      <trkpt lat="45.47948" lon="4.56601">
        <ele>373</ele>
        <time>2012-07-22T06:31:56Z</time>
      </trkpt>
      <trkpt lat="45.47935" lon="4.5659">
        <ele>372</ele>
        <time>2012-07-22T06:32:00Z</time>
      </trkpt>
      <trkpt lat="45.47921" lon="4.56579">
        <ele>372</ele>
        <time>2012-07-22T06:32:04Z</time>
      </trkpt>
      <trkpt lat="45.4791" lon="4.56572">
        <ele>371</ele>
        <time>2012-07-22T06:32:07Z</time>
      </trkpt>
      <trkpt lat="45.47891" lon="4.56561">
        <ele>371</ele>
        <time>2012-07-22T06:32:12Z</time>
      </trkpt>
      <trkpt lat="45.47875" lon="4.56553">
        <ele>371</ele>
        <time>2012-07-22T06:32:16Z</time>
      </trkpt>
      <trkpt lat="45.4786" lon="4.56543">
        <ele>371</ele>
        <time>2012-07-22T06:32:20Z</time>
      </trkpt>
      <trkpt lat="45.47844" lon="4.5653">
        <ele>371</ele>
        <time>2012-07-22T06:32:25Z</time>
      </trkpt>
      <trkpt lat="45.47835" lon="4.56509">
        <ele>371</ele>
        <time>2012-07-22T06:32:29Z</time>
      </trkpt>
      <trkpt lat="45.47829" lon="4.56488">
        <ele>371</ele>
        <time>2012-07-22T06:32:32Z</time>
      </trkpt>
      <trkpt lat="45.47821" lon="4.56468">
        <ele>371</ele>
        <time>2012-07-22T06:32:35Z</time>
      </trkpt>
      <trkpt lat="45.47812" lon="4.56443">
        <ele>371</ele>
        <time>2012-07-22T06:32:39Z</time>
      </trkpt>
      <trkpt lat="45.47802" lon="4.5642">
        <ele>371</ele>
        <time>2012-07-22T06:32:43Z</time>
      </trkpt>
      <trkpt lat="45.4779" lon="4.56398">
        <ele>370</ele>
        <time>2012-07-22T06:32:47Z</time>
      </trkpt>
      <trkpt lat="45.4778" lon="4.56377">
        <ele>370</ele>
        <time>2012-07-22T06:32:51Z</time>
      </trkpt>
      <trkpt lat="45.4777" lon="4.56355">
        <ele>370</ele>
        <time>2012-07-22T06:32:55Z</time>
      </trkpt>
      <trkpt lat="45.4776" lon="4.56332">
        <ele>370</ele>
        <time>2012-07-22T06:32:59Z</time>
      </trkpt>
      <trkpt lat="45.47751" lon="4.56309">
        <ele>370</ele>
        <time>2012-07-22T06:33:03Z</time>
      </trkpt>
      <trkpt lat="45.47738" lon="4.56278">
        <ele>369</ele>
        <time>2012-07-22T06:33:08Z</time>
      </trkpt>
      <trkpt lat="45.47728" lon="4.56257">
        <ele>369</ele>
        <time>2012-07-22T06:33:11Z</time>
      </trkpt>
      <trkpt lat="45.47716" lon="4.56234">
        <ele>368</ele>
        <time>2012-07-22T06:33:14Z</time>
      </trkpt>
      <trkpt lat="45.47704" lon="4.56201">
        <ele>368</ele>
        <time>2012-07-22T06:33:18Z</time>
      </trkpt>
      <trkpt lat="45.47709" lon="4.56157">
        <ele>367</ele>
        <time>2012-07-22T06:33:29Z</time>
      </trkpt>
      <trkpt lat="45.477" lon="4.56128">
        <ele>366</ele>
        <time>2012-07-22T06:33:43Z</time>
      </trkpt>
      <trkpt lat="45.47695" lon="4.56101">
        <ele>364</ele>
        <time>2012-07-22T06:33:59Z</time>
      </trkpt>
      <trkpt lat="45.47689" lon="4.56073">
        <ele>364</ele>
        <time>2012-07-22T06:34:11Z</time>
      </trkpt>
      <trkpt lat="45.47682" lon="4.56056">
        <ele>363</ele>
        <time>2012-07-22T06:34:20Z</time>
      </trkpt>
      <trkpt lat="45.47674" lon="4.56037">
        <ele>364</ele>
        <time>2012-07-22T06:34:31Z</time>
      </trkpt>
      <trkpt lat="45.47671" lon="4.56016">
        <ele>365</ele>
        <time>2012-07-22T06:34:42Z</time>
      </trkpt>
      <trkpt lat="45.4767" lon="4.56001">
        <ele>365</ele>
        <time>2012-07-22T06:34:50Z</time>
      </trkpt>
      <trkpt lat="45.47668" lon="4.55981">
        <ele>366</ele>
        <time>2012-07-22T06:34:58Z</time>
      </trkpt>
      <trkpt lat="45.47665" lon="4.55955">
        <ele>367</ele>
        <time>2012-07-22T06:35:15Z</time>
      </trkpt>
      <trkpt lat="45.47661" lon="4.55925">
        <ele>369</ele>
        <time>2012-07-22T06:35:30Z</time>
      </trkpt>
      <trkpt lat="45.47657" lon="4.55908">
        <ele>370</ele>
        <time>2012-07-22T06:35:37Z</time>
      </trkpt>
      <trkpt lat="45.47653" lon="4.55894">
        <ele>371</ele>
        <time>2012-07-22T06:35:44Z</time>
      </trkpt>
      <trkpt lat="45.47645" lon="4.55867">
        <ele>373</ele>
        <time>2012-07-22T06:35:58Z</time>
      </trkpt>
      <trkpt lat="45.47638" lon="4.55847">
        <ele>373</ele>
        <time>2012-07-22T06:36:09Z</time>
      </trkpt>
      <trkpt lat="45.47622" lon="4.55833">
        <ele>374</ele>
        <time>2012-07-22T06:36:22Z</time>
      </trkpt>
      <trkpt lat="45.4761" lon="4.55852">
        <ele>376</ele>
        <time>2012-07-22T06:36:32Z</time>
      </trkpt>
      <trkpt lat="45.47603" lon="4.5586">
        <ele>377</ele>
        <time>2012-07-22T06:36:38Z</time>
      </trkpt>
      <trkpt lat="45.4759" lon="4.55875">
        <ele>378</ele>
        <time>2012-07-22T06:36:50Z</time>
      </trkpt>
      <trkpt lat="45.47577" lon="4.5589">
        <ele>381</ele>
        <time>2012-07-22T06:37:02Z</time>
      </trkpt>
      <trkpt lat="45.4757" lon="4.559">
        <ele>382</ele>
        <time>2012-07-22T06:37:09Z</time>
      </trkpt>
      <trkpt lat="45.47564" lon="4.55911">
        <ele>383</ele>
        <time>2012-07-22T06:37:15Z</time>
      </trkpt>
      <trkpt lat="45.47553" lon="4.5593">
        <ele>384</ele>
        <time>2012-07-22T06:37:26Z</time>
      </trkpt>
      <trkpt lat="45.47546" lon="4.55946">
        <ele>385</ele>
        <time>2012-07-22T06:37:34Z</time>
      </trkpt>
      <trkpt lat="45.47532" lon="4.55966">
        <ele>386</ele>
        <time>2012-07-22T06:37:47Z</time>
      </trkpt>
      <trkpt lat="45.47526" lon="4.55974">
        <ele>387</ele>
        <time>2012-07-22T06:37:54Z</time>
      </trkpt>
      <trkpt lat="45.47517" lon="4.55986">
        <ele>388</ele>
        <time>2012-07-22T06:38:06Z</time>
      </trkpt>
      <trkpt lat="45.47508" lon="4.55998">
        <ele>389</ele>
        <time>2012-07-22T06:38:14Z</time>
      </trkpt>
      <trkpt lat="45.47499" lon="4.5601">
        <ele>389</ele>
        <time>2012-07-22T06:38:21Z</time>
      </trkpt>
      <trkpt lat="45.47492" lon="4.56018">
        <ele>390</ele>
        <time>2012-07-22T06:38:26Z</time>
      </trkpt>
      <trkpt lat="45.47476" lon="4.56036">
        <ele>391</ele>
        <time>2012-07-22T06:38:39Z</time>
      </trkpt>
      <trkpt lat="45.47465" lon="4.56045">
        <ele>392</ele>
        <time>2012-07-22T06:38:46Z</time>
      </trkpt>
      <trkpt lat="45.47455" lon="4.56057">
        <ele>393</ele>
        <time>2012-07-22T06:38:54Z</time>
      </trkpt>
      <trkpt lat="45.47441" lon="4.56076">
        <ele>394</ele>
        <time>2012-07-22T06:39:07Z</time>
      </trkpt>
      <trkpt lat="45.47433" lon="4.5608">
        <ele>396</ele>
        <time>2012-07-22T06:39:14Z</time>
      </trkpt>
      <trkpt lat="45.47425" lon="4.56086">
        <ele>397</ele>
        <time>2012-07-22T06:39:20Z</time>
      </trkpt>
      <trkpt lat="45.47418" lon="4.56093">
        <ele>399</ele>
        <time>2012-07-22T06:39:25Z</time>
      </trkpt>
      <trkpt lat="45.4741" lon="4.56101">
        <ele>400</ele>
        <time>2012-07-22T06:39:31Z</time>
      </trkpt>
      <trkpt lat="45.47402" lon="4.56109">
        <ele>400</ele>
        <time>2012-07-22T06:39:38Z</time>
      </trkpt>
      <trkpt lat="45.4739" lon="4.56121">
        <ele>402</ele>
        <time>2012-07-22T06:39:47Z</time>
      </trkpt>
      <trkpt lat="45.47383" lon="4.56131">
        <ele>402</ele>
        <time>2012-07-22T06:39:53Z</time>
      </trkpt>
      <trkpt lat="45.47374" lon="4.56145">
        <ele>404</ele>
        <time>2012-07-22T06:40:02Z</time>
      </trkpt>
      <trkpt lat="45.47368" lon="4.56152">
        <ele>405</ele>
        <time>2012-07-22T06:40:08Z</time>
      </trkpt>
      <trkpt lat="45.47355" lon="4.56163">
        <ele>406</ele>
        <time>2012-07-22T06:40:19Z</time>
      </trkpt>
      <trkpt lat="45.47344" lon="4.56177">
        <ele>407</ele>
        <time>2012-07-22T06:40:31Z</time>
      </trkpt>
      <trkpt lat="45.47333" lon="4.56189">
        <ele>408</ele>
        <time>2012-07-22T06:40:41Z</time>
      </trkpt>
      <trkpt lat="45.47326" lon="4.56197">
        <ele>408</ele>
        <time>2012-07-22T06:40:47Z</time>
      </trkpt>
      <trkpt lat="45.4731" lon="4.56211">
        <ele>408</ele>
        <time>2012-07-22T06:41:03Z</time>
      </trkpt>
      <trkpt lat="45.47296" lon="4.56227">
        <ele>409</ele>
        <time>2012-07-22T06:41:17Z</time>
      </trkpt>
      <trkpt lat="45.47277" lon="4.56249">
        <ele>410</ele>
        <time>2012-07-22T06:41:31Z</time>
      </trkpt>
      <trkpt lat="45.47268" lon="4.56265">
        <ele>412</ele>
        <time>2012-07-22T06:41:39Z</time>
      </trkpt>
      <trkpt lat="45.47264" lon="4.56283">
        <ele>414</ele>
        <time>2012-07-22T06:41:50Z</time>
      </trkpt>
      <trkpt lat="45.47264" lon="4.56296">
        <ele>415</ele>
        <time>2012-07-22T06:41:54Z</time>
      </trkpt>
      <trkpt lat="45.47252" lon="4.56303">
        <ele>417</ele>
        <time>2012-07-22T06:42:09Z</time>
      </trkpt>
      <trkpt lat="45.47248" lon="4.56281">
        <ele>419</ele>
        <time>2012-07-22T06:42:21Z</time>
      </trkpt>
      <trkpt lat="45.47245" lon="4.56266">
        <ele>419</ele>
        <time>2012-07-22T06:42:29Z</time>
      </trkpt>
      <trkpt lat="45.4724" lon="4.56245">
        <ele>422</ele>
        <time>2012-07-22T06:42:46Z</time>
      </trkpt>
      <trkpt lat="45.47233" lon="4.56227">
        <ele>423</ele>
        <time>2012-07-22T06:42:58Z</time>
      </trkpt>
      <trkpt lat="45.47224" lon="4.56208">
        <ele>424</ele>
        <time>2012-07-22T06:43:08Z</time>
      </trkpt>
      <trkpt lat="45.47216" lon="4.56189">
        <ele>426</ele>
        <time>2012-07-22T06:43:18Z</time>
      </trkpt>
      <trkpt lat="45.47195" lon="4.56161">
        <ele>428</ele>
        <time>2012-07-22T06:43:36Z</time>
      </trkpt>
      <trkpt lat="45.47177" lon="4.56138">
        <ele>430</ele>
        <time>2012-07-22T06:43:49Z</time>
      </trkpt>
      <trkpt lat="45.47164" lon="4.5612">
        <ele>431</ele>
        <time>2012-07-22T06:43:59Z</time>
      </trkpt>
      <trkpt lat="45.47135" lon="4.56097">
        <ele>432</ele>
        <time>2012-07-22T06:44:13Z</time>
      </trkpt>
      <trkpt lat="45.47117" lon="4.56092">
        <ele>433</ele>
        <time>2012-07-22T06:44:20Z</time>
      </trkpt>
      <trkpt lat="45.47104" lon="4.56086">
        <ele>434</ele>
        <time>2012-07-22T06:44:24Z</time>
      </trkpt>
      <trkpt lat="45.47086" lon="4.56082">
        <ele>435</ele>
        <time>2012-07-22T06:44:30Z</time>
      </trkpt>
      <trkpt lat="45.47068" lon="4.56078">
        <ele>436</ele>
        <time>2012-07-22T06:44:35Z</time>
      </trkpt>
      <trkpt lat="45.47044" lon="4.56078">
        <ele>437</ele>
        <time>2012-07-22T06:44:40Z</time>
      </trkpt>
      <trkpt lat="45.47026" lon="4.5608">
        <ele>437</ele>
        <time>2012-07-22T06:44:43Z</time>
      </trkpt>
      <trkpt lat="45.47007" lon="4.56082">
        <ele>438</ele>
        <time>2012-07-22T06:44:46Z</time>
      </trkpt>
      <trkpt lat="45.46987" lon="4.56084">
        <ele>438</ele>
        <time>2012-07-22T06:44:49Z</time>
      </trkpt>
      <trkpt lat="45.46966" lon="4.56082">
        <ele>438</ele>
        <time>2012-07-22T06:44:52Z</time>
      </trkpt>
      <trkpt lat="45.46945" lon="4.56074">
        <ele>439</ele>
        <time>2012-07-22T06:44:55Z</time>
      </trkpt>
      <trkpt lat="45.46925" lon="4.56064">
        <ele>439</ele>
        <time>2012-07-22T06:44:58Z</time>
      </trkpt>
      <trkpt lat="45.46909" lon="4.56034">
        <ele>439</ele>
        <time>2012-07-22T06:45:02Z</time>
      </trkpt>
      <trkpt lat="45.46901" lon="4.56006">
        <ele>439</ele>
        <time>2012-07-22T06:45:07Z</time>
      </trkpt>
      <trkpt lat="45.46894" lon="4.55974">
        <ele>439</ele>
        <time>2012-07-22T06:45:17Z</time>
      </trkpt>
      <trkpt lat="45.46883" lon="4.55945">
        <ele>440</ele>
        <time>2012-07-22T06:45:25Z</time>
      </trkpt>
      <trkpt lat="45.46876" lon="4.55926">
        <ele>440</ele>
        <time>2012-07-22T06:45:30Z</time>
      </trkpt>
      <trkpt lat="45.46867" lon="4.55906">
        <ele>440</ele>
        <time>2012-07-22T06:45:35Z</time>
      </trkpt>
      <trkpt lat="45.46859" lon="4.55886">
        <ele>441</ele>
        <time>2012-07-22T06:45:40Z</time>
      </trkpt>
      <trkpt lat="45.4685" lon="4.55864">
        <ele>441</ele>
        <time>2012-07-22T06:45:46Z</time>
      </trkpt>
      <trkpt lat="45.46842" lon="4.55844">
        <ele>441</ele>
        <time>2012-07-22T06:45:52Z</time>
      </trkpt>
      <trkpt lat="45.46835" lon="4.55818">
        <ele>441</ele>
        <time>2012-07-22T06:45:59Z</time>
      </trkpt>
      <trkpt lat="45.46825" lon="4.5579">
        <ele>442</ele>
        <time>2012-07-22T06:46:09Z</time>
      </trkpt>
      <trkpt lat="45.46815" lon="4.55757">
        <ele>442</ele>
        <time>2012-07-22T06:46:19Z</time>
      </trkpt>
      <trkpt lat="45.46805" lon="4.55695">
        <ele>496.2</ele>
        <time>2012-07-22T06:46:32Z</time>
      </trkpt>
      <trkpt lat="45.46801" lon="4.55585">
        <ele>441</ele>
        <time>2012-07-22T06:46:54Z</time>
      </trkpt>
      <trkpt lat="45.4678" lon="4.55545">
        <ele>441</ele>
        <time>2012-07-22T06:47:06Z</time>
      </trkpt>
      <trkpt lat="45.46772" lon="4.55526">
        <ele>442</ele>
        <time>2012-07-22T06:47:10Z</time>
      </trkpt>
      <trkpt lat="45.46759" lon="4.55501">
        <ele>442</ele>
        <time>2012-07-22T06:47:17Z</time>
      </trkpt>
      <trkpt lat="45.46747" lon="4.55481">
        <ele>444</ele>
        <time>2012-07-22T06:47:37Z</time>
      </trkpt>
      <trkpt lat="45.46732" lon="4.55459">
        <ele>445</ele>
        <time>2012-07-22T06:47:48Z</time>
      </trkpt>
      <trkpt lat="45.46717" lon="4.5544">
        <ele>446</ele>
        <time>2012-07-22T06:47:53Z</time>
      </trkpt>
      <trkpt lat="45.46697" lon="4.5541">
        <ele>446</ele>
        <time>2012-07-22T06:47:58Z</time>
      </trkpt>
      <trkpt lat="45.46646" lon="4.55337">
        <ele>446</ele>
        <time>2012-07-22T06:48:07Z</time>
      </trkpt>
      <trkpt lat="45.46639" lon="4.55327">
        <ele>447</ele>
        <time>2012-07-22T06:48:08Z</time>
      </trkpt>
      <trkpt lat="45.46632" lon="4.55316">
        <ele>447</ele>
        <time>2012-07-22T06:48:09Z</time>
      </trkpt>
      <trkpt lat="45.46601" lon="4.55257">
        <ele>447</ele>
        <time>2012-07-22T06:48:16Z</time>
      </trkpt>
      <trkpt lat="45.46582" lon="4.55279">
        <ele>447</ele>
        <time>2012-07-22T06:48:24Z</time>
      </trkpt>
      <trkpt lat="45.46566" lon="4.5533">
        <ele>448</ele>
        <time>2012-07-22T06:48:35Z</time>
      </trkpt>
      <trkpt lat="45.46559" lon="4.55354">
        <ele>448</ele>
        <time>2012-07-22T06:48:40Z</time>
      </trkpt>
      <trkpt lat="45.46547" lon="4.55392">
        <ele>449</ele>
        <time>2012-07-22T06:48:48Z</time>
      </trkpt>
      <trkpt lat="45.46541" lon="4.55412">
        <ele>449</ele>
        <time>2012-07-22T06:48:52Z</time>
      </trkpt>
      <trkpt lat="45.46534" lon="4.55443">
        <ele>450</ele>
        <time>2012-07-22T06:48:58Z</time>
      </trkpt>
      <trkpt lat="45.46528" lon="4.55463">
        <ele>450</ele>
        <time>2012-07-22T06:49:02Z</time>
      </trkpt>
      <trkpt lat="45.46521" lon="4.55484">
        <ele>450</ele>
        <time>2012-07-22T06:49:06Z</time>
      </trkpt>
      <trkpt lat="45.46513" lon="4.55503">
        <ele>450</ele>
        <time>2012-07-22T06:49:10Z</time>
      </trkpt>
      <trkpt lat="45.46505" lon="4.55527">
        <ele>450</ele>
        <time>2012-07-22T06:49:15Z</time>
      </trkpt>
      <trkpt lat="45.46497" lon="4.55552">
        <ele>450</ele>
        <time>2012-07-22T06:49:20Z</time>
      </trkpt>
      <trkpt lat="45.46491" lon="4.55566">
        <ele>450</ele>
        <time>2012-07-22T06:49:23Z</time>
      </trkpt>
      <trkpt lat="45.46483" lon="4.5559">
        <ele>450</ele>
        <time>2012-07-22T06:49:28Z</time>
      </trkpt>
      <trkpt lat="45.4647" lon="4.55621">
        <ele>450</ele>
        <time>2012-07-22T06:49:35Z</time>
      </trkpt>
      <trkpt lat="45.46461" lon="4.55644">
        <ele>450</ele>
        <time>2012-07-22T06:49:40Z</time>
      </trkpt>
      <trkpt lat="45.46451" lon="4.55667">
        <ele>450</ele>
        <time>2012-07-22T06:49:45Z</time>
      </trkpt>
      <trkpt lat="45.46442" lon="4.55689">
        <ele>450</ele>
        <time>2012-07-22T06:49:50Z</time>
      </trkpt>
      <trkpt lat="45.46434" lon="4.55711">
        <ele>450</ele>
        <time>2012-07-22T06:49:55Z</time>
      </trkpt>
      <trkpt lat="45.4643" lon="4.55725">
        <ele>450</ele>
        <time>2012-07-22T06:49:58Z</time>
      </trkpt>
      <trkpt lat="45.46423" lon="4.55744">
        <ele>451</ele>
        <time>2012-07-22T06:50:03Z</time>
      </trkpt>
      <trkpt lat="45.46414" lon="4.55764">
        <ele>451</ele>
        <time>2012-07-22T06:50:09Z</time>
      </trkpt>
      <trkpt lat="45.46409" lon="4.55773">
        <ele>452</ele>
        <time>2012-07-22T06:50:12Z</time>
      </trkpt>
      <trkpt lat="45.464" lon="4.55791">
        <ele>453</ele>
        <time>2012-07-22T06:50:18Z</time>
      </trkpt>
      <trkpt lat="45.46391" lon="4.55803">
        <ele>453</ele>
        <time>2012-07-22T06:50:23Z</time>
      </trkpt>
      <trkpt lat="45.46379" lon="4.55821">
        <ele>454</ele>
        <time>2012-07-22T06:50:30Z</time>
      </trkpt>
      <trkpt lat="45.46367" lon="4.55837">
        <ele>454</ele>
        <time>2012-07-22T06:50:36Z</time>
      </trkpt>
      <trkpt lat="45.46355" lon="4.55855">
        <ele>455</ele>
        <time>2012-07-22T06:50:42Z</time>
      </trkpt>
      <trkpt lat="45.46343" lon="4.55876">
        <ele>455</ele>
        <time>2012-07-22T06:50:48Z</time>
      </trkpt>
      <trkpt lat="45.46331" lon="4.55896">
        <ele>455</ele>
        <time>2012-07-22T06:50:53Z</time>
      </trkpt>
      <trkpt lat="45.4632" lon="4.55912">
        <ele>456</ele>
        <time>2012-07-22T06:50:57Z</time>
      </trkpt>
      <trkpt lat="45.46311" lon="4.55936">
        <ele>456</ele>
        <time>2012-07-22T06:51:02Z</time>
      </trkpt>
      <trkpt lat="45.46305" lon="4.55956">
        <ele>456</ele>
        <time>2012-07-22T06:51:06Z</time>
      </trkpt>
      <trkpt lat="45.46297" lon="4.5598">
        <ele>457</ele>
        <time>2012-07-22T06:51:11Z</time>
      </trkpt>
      <trkpt lat="45.4629" lon="4.56003">
        <ele>457</ele>
        <time>2012-07-22T06:51:16Z</time>
      </trkpt>
      <trkpt lat="45.46281" lon="4.56021">
        <ele>457</ele>
        <time>2012-07-22T06:51:21Z</time>
      </trkpt>
      <trkpt lat="45.4627" lon="4.56037">
        <ele>457</ele>
        <time>2012-07-22T06:51:26Z</time>
      </trkpt>
      <trkpt lat="45.4625" lon="4.56058">
        <ele>458</ele>
        <time>2012-07-22T06:51:34Z</time>
      </trkpt>
      <trkpt lat="45.4623" lon="4.56082">
        <ele>458</ele>
        <time>2012-07-22T06:51:43Z</time>
      </trkpt>
      <trkpt lat="45.46215" lon="4.56109">
        <ele>459</ele>
        <time>2012-07-22T06:51:51Z</time>
      </trkpt>
      <trkpt lat="45.46205" lon="4.56135">
        <ele>460</ele>
        <time>2012-07-22T06:51:58Z</time>
      </trkpt>
      <trkpt lat="45.46199" lon="4.56158">
        <ele>460</ele>
        <time>2012-07-22T06:52:03Z</time>
      </trkpt>
      <trkpt lat="45.46187" lon="4.56177">
        <ele>461</ele>
        <time>2012-07-22T06:52:08Z</time>
      </trkpt>
      <trkpt lat="45.4617" lon="4.56187">
        <ele>461</ele>
        <time>2012-07-22T06:52:13Z</time>
      </trkpt>
      <trkpt lat="45.46137" lon="4.56204">
        <ele>461</ele>
        <time>2012-07-22T06:52:24Z</time>
      </trkpt>
      <trkpt lat="45.46121" lon="4.56207">
        <ele>461</ele>
        <time>2012-07-22T06:52:29Z</time>
      </trkpt>
      <trkpt lat="45.46103" lon="4.5621">
        <ele>461</ele>
        <time>2012-07-22T06:52:35Z</time>
      </trkpt>
      <trkpt lat="45.46085" lon="4.56215">
        <ele>461</ele>
        <time>2012-07-22T06:52:41Z</time>
      </trkpt>
      <trkpt lat="45.46069" lon="4.56213">
        <ele>462</ele>
        <time>2012-07-22T06:52:47Z</time>
      </trkpt>
      <trkpt lat="45.46048" lon="4.56198">
        <ele>463</ele>
        <time>2012-07-22T06:52:59Z</time>
      </trkpt>
      <trkpt lat="45.46032" lon="4.56181">
        <ele>463</ele>
        <time>2012-07-22T06:53:09Z</time>
      </trkpt>
      <trkpt lat="45.4602" lon="4.56163">
        <ele>464</ele>
        <time>2012-07-22T06:53:16Z</time>
      </trkpt>
      <trkpt lat="45.46008" lon="4.56142">
        <ele>464</ele>
        <time>2012-07-22T06:53:22Z</time>
      </trkpt>
      <trkpt lat="45.45995" lon="4.56127">
        <ele>465</ele>
        <time>2012-07-22T06:53:28Z</time>
      </trkpt>
      <trkpt lat="45.45951" lon="4.56101">
        <ele>520.5</ele>
        <time>2012-07-22T06:53:38Z</time>
      </trkpt>
      <trkpt lat="45.45908" lon="4.56086">
        <ele>466</ele>
        <time>2012-07-22T06:53:45Z</time>
      </trkpt>
      <trkpt lat="45.45896" lon="4.56035">
        <ele>467</ele>
        <time>2012-07-22T06:54:05Z</time>
      </trkpt>
      <trkpt lat="45.45901" lon="4.56008">
        <ele>467</ele>
        <time>2012-07-22T06:54:12Z</time>
      </trkpt>
      <trkpt lat="45.45908" lon="4.55972">
        <ele>468</ele>
        <time>2012-07-22T06:54:26Z</time>
      </trkpt>
      <trkpt lat="45.45916" lon="4.55941">
        <ele>470</ele>
        <time>2012-07-22T06:54:37Z</time>
      </trkpt>
      <trkpt lat="45.45923" lon="4.55908">
        <ele>471</ele>
        <time>2012-07-22T06:54:48Z</time>
      </trkpt>
      <trkpt lat="45.4592" lon="4.55884">
        <ele>471</ele>
        <time>2012-07-22T06:54:58Z</time>
      </trkpt>
      <trkpt lat="45.45909" lon="4.55855">
        <ele>474</ele>
        <time>2012-07-22T06:55:12Z</time>
      </trkpt>
      <trkpt lat="45.45894" lon="4.55831">
        <ele>477</ele>
        <time>2012-07-22T06:55:33Z</time>
      </trkpt>
      <trkpt lat="45.45888" lon="4.55821">
        <ele>480</ele>
        <time>2012-07-22T06:55:41Z</time>
      </trkpt>
      <trkpt lat="45.45878" lon="4.55801">
        <ele>483</ele>
        <time>2012-07-22T06:55:53Z</time>
      </trkpt>
      <trkpt lat="45.45866" lon="4.5578">
        <ele>487</ele>
        <time>2012-07-22T06:56:11Z</time>
      </trkpt>
      <trkpt lat="45.45865" lon="4.55761">
        <ele>489</ele>
        <time>2012-07-22T06:56:24Z</time>
      </trkpt>
      <trkpt lat="45.45868" lon="4.55737">
        <ele>491</ele>
        <time>2012-07-22T06:56:35Z</time>
      </trkpt>
      <trkpt lat="45.45873" lon="4.55715">
        <ele>492</ele>
        <time>2012-07-22T06:56:41Z</time>
      </trkpt>
      <trkpt lat="45.45879" lon="4.55694">
        <ele>493</ele>
        <time>2012-07-22T06:56:48Z</time>
      </trkpt>
      <trkpt lat="45.45888" lon="4.55656">
        <ele>494</ele>
        <time>2012-07-22T06:57:10Z</time>
      </trkpt>
      <trkpt lat="45.45894" lon="4.55633">
        <ele>496</ele>
        <time>2012-07-22T06:57:18Z</time>
      </trkpt>
      <trkpt lat="45.45906" lon="4.55615">
        <ele>497</ele>
        <time>2012-07-22T06:57:26Z</time>
      </trkpt>
      <trkpt lat="45.45915" lon="4.55594">
        <ele>499</ele>
        <time>2012-07-22T06:57:41Z</time>
      </trkpt>
      <trkpt lat="45.45918" lon="4.55557">
        <ele>501</ele>
        <time>2012-07-22T06:57:55Z</time>
      </trkpt>
      <trkpt lat="45.45919" lon="4.55532">
        <ele>503</ele>
        <time>2012-07-22T06:58:07Z</time>
      </trkpt>
      <trkpt lat="45.4591" lon="4.55514">
        <ele>505</ele>
        <time>2012-07-22T06:58:21Z</time>
      </trkpt>
      <trkpt lat="45.45895" lon="4.55516">
        <ele>508</ele>
        <time>2012-07-22T06:58:31Z</time>
      </trkpt>
      <trkpt lat="45.45887" lon="4.55522">
        <ele>508</ele>
        <time>2012-07-22T06:58:37Z</time>
      </trkpt>
      <trkpt lat="45.45875" lon="4.55538">
        <ele>510</ele>
        <time>2012-07-22T06:58:47Z</time>
      </trkpt>
      <trkpt lat="45.45864" lon="4.55566">
        <ele>513</ele>
        <time>2012-07-22T06:59:00Z</time>
      </trkpt>
      <trkpt lat="45.45856" lon="4.55585">
        <ele>514</ele>
        <time>2012-07-22T06:59:12Z</time>
      </trkpt>
      <trkpt lat="45.45845" lon="4.55602">
        <ele>515</ele>
        <time>2012-07-22T06:59:21Z</time>
      </trkpt>
      <trkpt lat="45.4583" lon="4.55622">
        <ele>517</ele>
        <time>2012-07-22T06:59:30Z</time>
      </trkpt>
      <trkpt lat="45.45814" lon="4.55645">
        <ele>518</ele>
        <time>2012-07-22T06:59:39Z</time>
      </trkpt>
      <trkpt lat="45.458" lon="4.55662">
        <ele>519</ele>
        <time>2012-07-22T06:59:46Z</time>
      </trkpt>
      <trkpt lat="45.45788" lon="4.55678">
        <ele>520</ele>
        <time>2012-07-22T06:59:53Z</time>
      </trkpt>
      <trkpt lat="45.45775" lon="4.55692">
        <ele>521</ele>
        <time>2012-07-22T07:00:00Z</time>
      </trkpt>
      <trkpt lat="45.45762" lon="4.55706">
        <ele>521</ele>
        <time>2012-07-22T07:00:07Z</time>
      </trkpt>
      <trkpt lat="45.45749" lon="4.55721">
        <ele>522</ele>
        <time>2012-07-22T07:00:14Z</time>
      </trkpt>
      <trkpt lat="45.45738" lon="4.5574">
        <ele>524</ele>
        <time>2012-07-22T07:00:27Z</time>
      </trkpt>
      <trkpt lat="45.4573" lon="4.55764">
        <ele>524</ele>
        <time>2012-07-22T07:00:36Z</time>
      </trkpt>
      <trkpt lat="45.45726" lon="4.55788">
        <ele>524</ele>
        <time>2012-07-22T07:00:44Z</time>
      </trkpt>
      <trkpt lat="45.45724" lon="4.558">
        <ele>525</ele>
        <time>2012-07-22T07:00:48Z</time>
      </trkpt>
      <trkpt lat="45.45721" lon="4.55813">
        <ele>526</ele>
        <time>2012-07-22T07:00:53Z</time>
      </trkpt>
      <trkpt lat="45.45717" lon="4.55835">
        <ele>527</ele>
        <time>2012-07-22T07:01:02Z</time>
      </trkpt>
      <trkpt lat="45.45717" lon="4.55852">
        <ele>527</ele>
        <time>2012-07-22T07:01:09Z</time>
      </trkpt>
      <trkpt lat="45.45714" lon="4.55876">
        <ele>529</ele>
        <time>2012-07-22T07:01:18Z</time>
      </trkpt>
      <trkpt lat="45.45707" lon="4.55897">
        <ele>530</ele>
        <time>2012-07-22T07:01:29Z</time>
      </trkpt>
      <trkpt lat="45.45701" lon="4.55923">
        <ele>532</ele>
        <time>2012-07-22T07:01:43Z</time>
      </trkpt>
      <trkpt lat="45.45696" lon="4.55947">
        <ele>533</ele>
        <time>2012-07-22T07:01:54Z</time>
      </trkpt>
      <trkpt lat="45.45691" lon="4.55967">
        <ele>534</ele>
        <time>2012-07-22T07:02:04Z</time>
      </trkpt>
      <trkpt lat="45.45685" lon="4.55992">
        <ele>536</ele>
        <time>2012-07-22T07:02:16Z</time>
      </trkpt>
      <trkpt lat="45.45676" lon="4.56022">
        <ele>539</ele>
        <time>2012-07-22T07:02:31Z</time>
      </trkpt>
      <trkpt lat="45.45672" lon="4.56055">
        <ele>541</ele>
        <time>2012-07-22T07:02:46Z</time>
      </trkpt>
      <trkpt lat="45.4567" lon="4.56083">
        <ele>543</ele>
        <time>2012-07-22T07:03:02Z</time>
      </trkpt>
      <trkpt lat="45.45659" lon="4.56111">
        <ele>545</ele>
        <time>2012-07-22T07:03:17Z</time>
      </trkpt>
      <trkpt lat="45.45651" lon="4.56135">
        <ele>546</ele>
        <time>2012-07-22T07:03:29Z</time>
      </trkpt>
      <trkpt lat="45.45643" lon="4.56155">
        <ele>547</ele>
        <time>2012-07-22T07:03:38Z</time>
      </trkpt>
      <trkpt lat="45.4563" lon="4.56182">
        <ele>549</ele>
        <time>2012-07-22T07:03:52Z</time>
      </trkpt>
      <trkpt lat="45.45618" lon="4.56211">
        <ele>551</ele>
        <time>2012-07-22T07:04:09Z</time>
      </trkpt>
      <trkpt lat="45.45607" lon="4.56233">
        <ele>552</ele>
        <time>2012-07-22T07:04:21Z</time>
      </trkpt>
      <trkpt lat="45.45602" lon="4.56254">
        <ele>553</ele>
        <time>2012-07-22T07:04:32Z</time>
      </trkpt>
      <trkpt lat="45.45597" lon="4.56277">
        <ele>555</ele>
        <time>2012-07-22T07:04:40Z</time>
      </trkpt>
      <trkpt lat="45.45589" lon="4.56298">
        <ele>557</ele>
        <time>2012-07-22T07:04:51Z</time>
      </trkpt>
      <trkpt lat="45.45581" lon="4.56337">
        <ele>560</ele>
        <time>2012-07-22T07:05:14Z</time>
      </trkpt>
      <trkpt lat="45.4558" lon="4.56373">
        <ele>563</ele>
        <time>2012-07-22T07:05:32Z</time>
      </trkpt>
      <trkpt lat="45.45579" lon="4.56396">
        <ele>566</ele>
        <time>2012-07-22T07:05:41Z</time>
      </trkpt>
      <trkpt lat="45.45573" lon="4.56412">
        <ele>571</ele>
        <time>2012-07-22T07:06:10Z</time>
      </trkpt>
      <trkpt lat="45.45561" lon="4.56433">
        <ele>577</ele>
        <time>2012-07-22T07:06:37Z</time>
      </trkpt>
      <trkpt lat="45.45553" lon="4.56453">
        <ele>580</ele>
        <time>2012-07-22T07:06:50Z</time>
      </trkpt>
      <trkpt lat="45.45549" lon="4.56478">
        <ele>585</ele>
        <time>2012-07-22T07:07:11Z</time>
      </trkpt>
      <trkpt lat="45.45545" lon="4.56497">
        <ele>587</ele>
        <time>2012-07-22T07:07:21Z</time>
      </trkpt>
      <trkpt lat="45.45527" lon="4.5651">
        <ele>591</ele>
        <time>2012-07-22T07:07:59Z</time>
      </trkpt>
      <trkpt lat="45.45512" lon="4.56505">
        <ele>596</ele>
        <time>2012-07-22T07:08:54Z</time>
      </trkpt>
      <trkpt lat="45.45494" lon="4.5649">
        <ele>597</ele>
        <time>2012-07-22T07:09:07Z</time>
      </trkpt>
      <trkpt lat="45.45472" lon="4.56474">
        <ele>599</ele>
        <time>2012-07-22T07:09:24Z</time>
      </trkpt>
      <trkpt lat="45.45451" lon="4.56465">
        <ele>601</ele>
        <time>2012-07-22T07:09:37Z</time>
      </trkpt>
      <trkpt lat="45.4544" lon="4.56457">
        <ele>602</ele>
        <time>2012-07-22T07:09:48Z</time>
      </trkpt>
      <trkpt lat="45.45432" lon="4.56455">
        <ele>603</ele>
        <time>2012-07-22T07:09:54Z</time>
      </trkpt>
      <trkpt lat="45.45412" lon="4.56448">
        <ele>603</ele>
        <time>2012-07-22T07:10:08Z</time>
      </trkpt>
      <trkpt lat="45.45394" lon="4.5644">
        <ele>603</ele>
        <time>2012-07-22T07:10:19Z</time>
      </trkpt>
      <trkpt lat="45.4538" lon="4.56429">
        <ele>604</ele>
        <time>2012-07-22T07:10:28Z</time>
      </trkpt>
      <trkpt lat="45.45365" lon="4.5642">
        <ele>604</ele>
        <time>2012-07-22T07:10:38Z</time>
      </trkpt>
      <trkpt lat="45.4535" lon="4.56417">
        <ele>605</ele>
        <time>2012-07-22T07:10:48Z</time>
      </trkpt>
      <trkpt lat="45.45329" lon="4.56427">
        <ele>605</ele>
        <time>2012-07-22T07:11:03Z</time>
      </trkpt>
      <trkpt lat="45.4531" lon="4.56437">
        <ele>606</ele>
        <time>2012-07-22T07:11:12Z</time>
      </trkpt>
      <trkpt lat="45.45297" lon="4.56447">
        <ele>606</ele>
        <time>2012-07-22T07:11:19Z</time>
      </trkpt>
      <trkpt lat="45.45283" lon="4.56466">
        <ele>607</ele>
        <time>2012-07-22T07:11:26Z</time>
      </trkpt>
      <trkpt lat="45.45269" lon="4.56481">
        <ele>607</ele>
        <time>2012-07-22T07:11:32Z</time>
      </trkpt>
      <trkpt lat="45.45252" lon="4.56488">
        <ele>607</ele>
        <time>2012-07-22T07:11:36Z</time>
      </trkpt>
      <trkpt lat="45.45234" lon="4.56493">
        <ele>607</ele>
        <time>2012-07-22T07:11:41Z</time>
      </trkpt>
      <trkpt lat="45.45216" lon="4.56496">
        <ele>607</ele>
        <time>2012-07-22T07:11:46Z</time>
      </trkpt>
      <trkpt lat="45.452" lon="4.56497">
        <ele>608</ele>
        <time>2012-07-22T07:11:51Z</time>
      </trkpt>
      <trkpt lat="45.45182" lon="4.56495">
        <ele>608</ele>
        <time>2012-07-22T07:11:57Z</time>
      </trkpt>
      <trkpt lat="45.45161" lon="4.5648">
        <ele>609</ele>
        <time>2012-07-22T07:12:09Z</time>
      </trkpt>
      <trkpt lat="45.45086" lon="4.56424">
        <ele>680.8</ele>
        <time>2012-07-22T07:12:52Z</time>
      </trkpt>
      <trkpt lat="45.4498" lon="4.56365">
        <ele>682.8</ele>
        <time>2012-07-22T07:13:44Z</time>
      </trkpt>
      <trkpt lat="45.44873" lon="4.5632">
        <ele>693.8</ele>
        <time>2012-07-22T07:14:30Z</time>
      </trkpt>
      <trkpt lat="45.44819" lon="4.56333">
        <ele>613</ele>
        <time>2012-07-22T07:14:51Z</time>
      </trkpt>
      <trkpt lat="45.44785" lon="4.56345">
        <ele>619</ele>
        <time>2012-07-22T07:15:10Z</time>
      </trkpt>
      <trkpt lat="45.44756" lon="4.56381">
        <ele>703</ele>
        <time>2012-07-22T07:15:46Z</time>
      </trkpt>
      <trkpt lat="45.4474" lon="4.56441">
        <ele>625</ele>
        <time>2012-07-22T07:16:34Z</time>
      </trkpt>
      <trkpt lat="45.44736" lon="4.56478">
        <ele>628</ele>
        <time>2012-07-22T07:16:39Z</time>
      </trkpt>
      <trkpt lat="45.4474" lon="4.56534">
        <ele>631</ele>
        <time>2012-07-22T07:16:47Z</time>
      </trkpt>
      <trkpt lat="45.44747" lon="4.56663">
        <ele>634</ele>
        <time>2012-07-22T07:17:34Z</time>
      </trkpt>
      <trkpt lat="45.44745" lon="4.56701">
        <ele>635</ele>
        <time>2012-07-22T07:17:44Z</time>
      </trkpt>
      <trkpt lat="45.44754" lon="4.56761">
        <ele>641</ele>
        <time>2012-07-22T07:18:07Z</time>
      </trkpt>
      <trkpt lat="45.44779" lon="4.56889">
        <ele>690.6</ele>
        <time>2012-07-22T07:18:29Z</time>
      </trkpt>
      <trkpt lat="45.44763" lon="4.56949">
        <ele>688.4</ele>
        <time>2012-07-22T07:18:40Z</time>
      </trkpt>
      <trkpt lat="45.4474" lon="4.57003">
        <ele>680.9</ele>
        <time>2012-07-22T07:18:50Z</time>
      </trkpt>
      <trkpt lat="45.44681" lon="4.57019">
        <ele>678</ele>
        <time>2012-07-22T07:19:00Z</time>
      </trkpt>
      <trkpt lat="45.44528" lon="4.57069">
        <ele>678.1</ele>
        <time>2012-07-22T07:19:18Z</time>
      </trkpt>
      <trkpt lat="45.44488" lon="4.57023">
        <ele>681.3</ele>
        <time>2012-07-22T07:19:41Z</time>
      </trkpt>
      <trkpt lat="45.44401" lon="4.56899">
        <ele>679.4</ele>
        <time>2012-07-22T07:20:04Z</time>
      </trkpt>
      <trkpt lat="45.443" lon="4.56807">
        <ele>682.6</ele>
        <time>2012-07-22T07:20:32Z</time>
      </trkpt>
      <trkpt lat="45.44291" lon="4.56776">
        <ele>641</ele>
        <time>2012-07-22T07:20:37Z</time>
      </trkpt>
      <trkpt lat="45.44286" lon="4.56739">
        <ele>641</ele>
        <time>2012-07-22T07:20:42Z</time>
      </trkpt>
      <trkpt lat="45.44282" lon="4.56714">
        <ele>641</ele>
        <time>2012-07-22T07:20:46Z</time>
      </trkpt>
      <trkpt lat="45.44269" lon="4.5662">
        <ele>680.2</ele>
        <time>2012-07-22T07:20:57Z</time>
      </trkpt>
      <trkpt lat="45.44237" lon="4.56575">
        <ele>669.3</ele>
        <time>2012-07-22T07:21:03Z</time>
      </trkpt>
      <trkpt lat="45.44195" lon="4.56539">
        <ele>672.6</ele>
        <time>2012-07-22T07:21:09Z</time>
      </trkpt>
      <trkpt lat="45.44151" lon="4.56511">
        <ele>668.5</ele>
        <time>2012-07-22T07:21:16Z</time>
      </trkpt>
      <trkpt lat="45.44146" lon="4.56449">
        <ele>667.5</ele>
        <time>2012-07-22T07:21:26Z</time>
      </trkpt>
      <trkpt lat="45.44159" lon="4.56412">
        <ele>641</ele>
        <time>2012-07-22T07:21:32Z</time>
      </trkpt>
      <trkpt lat="45.44172" lon="4.56385">
        <ele>640</ele>
        <time>2012-07-22T07:21:41Z</time>
      </trkpt>
      <trkpt lat="45.4418" lon="4.56361">
        <ele>639</ele>
        <time>2012-07-22T07:21:52Z</time>
      </trkpt>
      <trkpt lat="45.44187" lon="4.56327">
        <ele>638</ele>
        <time>2012-07-22T07:22:05Z</time>
      </trkpt>
      <trkpt lat="45.44191" lon="4.56304">
        <ele>638</ele>
        <time>2012-07-22T07:22:13Z</time>
      </trkpt>
      <trkpt lat="45.44195" lon="4.56278">
        <ele>638</ele>
        <time>2012-07-22T07:22:23Z</time>
      </trkpt>
      <trkpt lat="45.442" lon="4.56252">
        <ele>638</ele>
        <time>2012-07-22T07:22:36Z</time>
      </trkpt>
      <trkpt lat="45.44203" lon="4.56229">
        <ele>638</ele>
        <time>2012-07-22T07:22:44Z</time>
      </trkpt>
      <trkpt lat="45.442" lon="4.56207">
        <ele>638</ele>
        <time>2012-07-22T07:22:55Z</time>
      </trkpt>
      <trkpt lat="45.44182" lon="4.56169">
        <ele>639</ele>
        <time>2012-07-22T07:23:16Z</time>
      </trkpt>
      <trkpt lat="45.44171" lon="4.56151">
        <ele>639</ele>
        <time>2012-07-22T07:23:25Z</time>
      </trkpt>
      <trkpt lat="45.44153" lon="4.56128">
        <ele>640</ele>
        <time>2012-07-22T07:23:38Z</time>
      </trkpt>
      <trkpt lat="45.4414" lon="4.56099">
        <ele>641</ele>
        <time>2012-07-22T07:23:54Z</time>
      </trkpt>
      <trkpt lat="45.44137" lon="4.56073">
        <ele>642</ele>
        <time>2012-07-22T07:24:05Z</time>
      </trkpt>
      <trkpt lat="45.4413" lon="4.56052">
        <ele>643</ele>
        <time>2012-07-22T07:24:16Z</time>
      </trkpt>
      <trkpt lat="45.44094" lon="4.56">
        <ele>643</ele>
        <time>2012-07-22T07:24:45Z</time>
      </trkpt>
      <trkpt lat="45.44071" lon="4.55981">
        <ele>645</ele>
        <time>2012-07-22T07:25:02Z</time>
      </trkpt>
      <trkpt lat="45.44057" lon="4.55969">
        <ele>646</ele>
        <time>2012-07-22T07:25:10Z</time>
      </trkpt>
      <trkpt lat="45.44043" lon="4.55957">
        <ele>646</ele>
        <time>2012-07-22T07:25:19Z</time>
      </trkpt>
      <trkpt lat="45.44018" lon="4.55933">
        <ele>646</ele>
        <time>2012-07-22T07:25:36Z</time>
      </trkpt>
      <trkpt lat="45.43997" lon="4.55914">
        <ele>647</ele>
        <time>2012-07-22T07:25:50Z</time>
      </trkpt>
      <trkpt lat="45.43973" lon="4.55889">
        <ele>647</ele>
        <time>2012-07-22T07:26:05Z</time>
      </trkpt>
      <trkpt lat="45.43951" lon="4.55865">
        <ele>648</ele>
        <time>2012-07-22T07:26:22Z</time>
      </trkpt>
      <trkpt lat="45.43933" lon="4.55846">
        <ele>649</ele>
        <time>2012-07-22T07:26:34Z</time>
      </trkpt>
      <trkpt lat="45.4389" lon="4.55788">
        <ele>726.5</ele>
        <time>2012-07-22T07:27:10Z</time>
      </trkpt>
      <trkpt lat="45.43871" lon="4.55774">
        <ele>650</ele>
        <time>2012-07-22T07:27:20Z</time>
      </trkpt>
      <trkpt lat="45.43837" lon="4.55762">
        <ele>652</ele>
        <time>2012-07-22T07:27:32Z</time>
      </trkpt>
      <trkpt lat="45.43819" lon="4.5576">
        <ele>654</ele>
        <time>2012-07-22T07:27:37Z</time>
      </trkpt>
      <trkpt lat="45.43803" lon="4.55764">
        <ele>655</ele>
        <time>2012-07-22T07:27:42Z</time>
      </trkpt>
      <trkpt lat="45.4377" lon="4.55792">
        <ele>657</ele>
        <time>2012-07-22T07:27:58Z</time>
      </trkpt>
      <trkpt lat="45.43748" lon="4.55817">
        <ele>658</ele>
        <time>2012-07-22T07:28:04Z</time>
      </trkpt>
      <trkpt lat="45.43737" lon="4.55836">
        <ele>659</ele>
        <time>2012-07-22T07:28:08Z</time>
      </trkpt>
      <trkpt lat="45.43729" lon="4.55856">
        <ele>660</ele>
        <time>2012-07-22T07:28:12Z</time>
      </trkpt>
      <trkpt lat="45.43718" lon="4.55898">
        <ele>661</ele>
        <time>2012-07-22T07:28:19Z</time>
      </trkpt>
      <trkpt lat="45.43696" lon="4.55984">
        <ele>720.7</ele>
        <time>2012-07-22T07:28:30Z</time>
      </trkpt>
      <trkpt lat="45.4366" lon="4.56065">
        <ele>720.9</ele>
        <time>2012-07-22T07:28:52Z</time>
      </trkpt>
      <trkpt lat="45.43619" lon="4.56166">
        <ele>664</ele>
        <time>2012-07-22T07:29:25Z</time>
      </trkpt>
      <trkpt lat="45.43614" lon="4.5618">
        <ele>666</ele>
        <time>2012-07-22T07:29:29Z</time>
      </trkpt>
      <trkpt lat="45.43609" lon="4.56189">
        <ele>667</ele>
        <time>2012-07-22T07:29:32Z</time>
      </trkpt>
      <trkpt lat="45.43599" lon="4.56209">
        <ele>668</ele>
        <time>2012-07-22T07:29:38Z</time>
      </trkpt>
      <trkpt lat="45.43588" lon="4.56228">
        <ele>670</ele>
        <time>2012-07-22T07:29:44Z</time>
      </trkpt>
      <trkpt lat="45.43574" lon="4.5624">
        <ele>671</ele>
        <time>2012-07-22T07:29:50Z</time>
      </trkpt>
      <trkpt lat="45.43541" lon="4.56243">
        <ele>673</ele>
        <time>2012-07-22T07:30:07Z</time>
      </trkpt>
      <trkpt lat="45.43522" lon="4.56231">
        <ele>674</ele>
        <time>2012-07-22T07:30:15Z</time>
      </trkpt>
      <trkpt lat="45.43511" lon="4.5622">
        <ele>677</ele>
        <time>2012-07-22T07:31:01Z</time>
      </trkpt>
      <trkpt lat="45.43507" lon="4.56211">
        <ele>683</ele>
        <time>2012-07-22T07:35:01Z</time>
      </trkpt>
      <trkpt lat="45.43509" lon="4.56187">
        <ele>684</ele>
        <time>2012-07-22T07:35:36Z</time>
      </trkpt>
      <trkpt lat="45.4351" lon="4.56079">
        <ele>744.4</ele>
        <time>2012-07-22T07:36:10Z</time>
      </trkpt>
      <trkpt lat="45.43492" lon="4.56005">
        <ele>689</ele>
        <time>2012-07-22T07:36:47Z</time>
      </trkpt>
      <trkpt lat="45.43483" lon="4.55967">
        <ele>691</ele>
        <time>2012-07-22T07:37:10Z</time>
      </trkpt>
      <trkpt lat="45.43461" lon="4.55929">
        <ele>695</ele>
        <time>2012-07-22T07:37:27Z</time>
      </trkpt>
      <trkpt lat="45.43432" lon="4.5591">
        <ele>696</ele>
        <time>2012-07-22T07:37:36Z</time>
      </trkpt>
      <trkpt lat="45.43406" lon="4.55894">
        <ele>698</ele>
        <time>2012-07-22T07:37:47Z</time>
      </trkpt>
      <trkpt lat="45.43385" lon="4.55877">
        <ele>699</ele>
        <time>2012-07-22T07:37:55Z</time>
      </trkpt>
      <trkpt lat="45.43371" lon="4.55858">
        <ele>700</ele>
        <time>2012-07-22T07:38:01Z</time>
      </trkpt>
      <trkpt lat="45.43358" lon="4.55841">
        <ele>701</ele>
        <time>2012-07-22T07:38:07Z</time>
      </trkpt>
      <trkpt lat="45.43339" lon="4.55826">
        <ele>702</ele>
        <time>2012-07-22T07:38:16Z</time>
      </trkpt>
      <trkpt lat="45.4332" lon="4.55816">
        <ele>703</ele>
        <time>2012-07-22T07:38:30Z</time>
      </trkpt>
      <trkpt lat="45.43304" lon="4.55809">
        <ele>704</ele>
        <time>2012-07-22T07:38:39Z</time>
      </trkpt>
      <trkpt lat="45.43289" lon="4.55801">
        <ele>704</ele>
        <time>2012-07-22T07:38:47Z</time>
      </trkpt>
      <trkpt lat="45.43274" lon="4.55787">
        <ele>705</ele>
        <time>2012-07-22T07:38:55Z</time>
      </trkpt>
      <trkpt lat="45.43257" lon="4.55763">
        <ele>705</ele>
        <time>2012-07-22T07:39:11Z</time>
      </trkpt>
      <trkpt lat="45.43228" lon="4.55681">
        <ele>706</ele>
        <time>2012-07-22T07:39:30Z</time>
      </trkpt>
      <trkpt lat="45.43224" lon="4.55656">
        <ele>707</ele>
        <time>2012-07-22T07:39:36Z</time>
      </trkpt>
      <trkpt lat="45.43223" lon="4.55606">
        <ele>707</ele>
        <time>2012-07-22T07:39:49Z</time>
      </trkpt>
      <trkpt lat="45.43219" lon="4.55573">
        <ele>707</ele>
        <time>2012-07-22T07:39:58Z</time>
      </trkpt>
      <trkpt lat="45.43215" lon="4.55547">
        <ele>708</ele>
        <time>2012-07-22T07:40:05Z</time>
      </trkpt>
      <trkpt lat="45.43212" lon="4.55518">
        <ele>709</ele>
        <time>2012-07-22T07:40:13Z</time>
      </trkpt>
      <trkpt lat="45.4321" lon="4.55495">
        <ele>711</ele>
        <time>2012-07-22T07:40:18Z</time>
      </trkpt>
      <trkpt lat="45.43207" lon="4.55472">
        <ele>712</ele>
        <time>2012-07-22T07:40:24Z</time>
      </trkpt>
      <trkpt lat="45.43206" lon="4.5545">
        <ele>714</ele>
        <time>2012-07-22T07:40:30Z</time>
      </trkpt>
      <trkpt lat="45.43207" lon="4.55427">
        <ele>716</ele>
        <time>2012-07-22T07:40:37Z</time>
      </trkpt>
      <trkpt lat="45.43207" lon="4.55404">
        <ele>720</ele>
        <time>2012-07-22T07:40:50Z</time>
      </trkpt>
      <trkpt lat="45.43211" lon="4.55376">
        <ele>722</ele>
        <time>2012-07-22T07:41:08Z</time>
      </trkpt>
      <trkpt lat="45.43218" lon="4.55351">
        <ele>726</ele>
        <time>2012-07-22T07:41:25Z</time>
      </trkpt>
      <trkpt lat="45.43224" lon="4.55331">
        <ele>727</ele>
        <time>2012-07-22T07:41:34Z</time>
      </trkpt>
      <trkpt lat="45.4323" lon="4.55308">
        <ele>730</ele>
        <time>2012-07-22T07:41:43Z</time>
      </trkpt>
      <trkpt lat="45.43238" lon="4.55284">
        <ele>732</ele>
        <time>2012-07-22T07:41:55Z</time>
      </trkpt>
      <trkpt lat="45.43246" lon="4.55258">
        <ele>734</ele>
        <time>2012-07-22T07:42:05Z</time>
      </trkpt>
      <trkpt lat="45.43254" lon="4.55229">
        <ele>736</ele>
        <time>2012-07-22T07:42:14Z</time>
      </trkpt>
      <trkpt lat="45.43266" lon="4.55183">
        <ele>738</ele>
        <time>2012-07-22T07:42:29Z</time>
      </trkpt>
      <trkpt lat="45.43274" lon="4.55154">
        <ele>739</ele>
        <time>2012-07-22T07:42:35Z</time>
      </trkpt>
      <trkpt lat="45.4328" lon="4.55126">
        <ele>740</ele>
        <time>2012-07-22T07:42:41Z</time>
      </trkpt>
      <trkpt lat="45.43292" lon="4.55058">
        <ele>741</ele>
        <time>2012-07-22T07:42:49Z</time>
      </trkpt>
      <trkpt lat="45.43312" lon="4.55">
        <ele>741</ele>
        <time>2012-07-22T07:42:55Z</time>
      </trkpt>
      <trkpt lat="45.43323" lon="4.54963">
        <ele>741</ele>
        <time>2012-07-22T07:42:59Z</time>
      </trkpt>
      <trkpt lat="45.43327" lon="4.54934">
        <ele>742</ele>
        <time>2012-07-22T07:43:02Z</time>
      </trkpt>
      <trkpt lat="45.4333" lon="4.54909">
        <ele>742</ele>
        <time>2012-07-22T07:43:05Z</time>
      </trkpt>
      <trkpt lat="45.43332" lon="4.54883">
        <ele>743</ele>
        <time>2012-07-22T07:43:10Z</time>
      </trkpt>
      <trkpt lat="45.43338" lon="4.54858">
        <ele>743</ele>
        <time>2012-07-22T07:43:15Z</time>
      </trkpt>
      <trkpt lat="45.43343" lon="4.54832">
        <ele>744</ele>
        <time>2012-07-22T07:43:18Z</time>
      </trkpt>
      <trkpt lat="45.4335" lon="4.54811">
        <ele>744</ele>
        <time>2012-07-22T07:43:20Z</time>
      </trkpt>
      <trkpt lat="45.43356" lon="4.54788">
        <ele>745</ele>
        <time>2012-07-22T07:43:22Z</time>
      </trkpt>
      <trkpt lat="45.43357" lon="4.54766">
        <ele>745</ele>
        <time>2012-07-22T07:43:24Z</time>
      </trkpt>
      <trkpt lat="45.4336" lon="4.54735">
        <ele>745</ele>
        <time>2012-07-22T07:43:27Z</time>
      </trkpt>
      <trkpt lat="45.43359" lon="4.54706">
        <ele>746</ele>
        <time>2012-07-22T07:43:30Z</time>
      </trkpt>
      <trkpt lat="45.43356" lon="4.5468">
        <ele>746</ele>
        <time>2012-07-22T07:43:33Z</time>
      </trkpt>
      <trkpt lat="45.43352" lon="4.54646">
        <ele>746</ele>
        <time>2012-07-22T07:43:39Z</time>
      </trkpt>
      <trkpt lat="45.43344" lon="4.54627">
        <ele>746</ele>
        <time>2012-07-22T07:43:43Z</time>
      </trkpt>
      <trkpt lat="45.43332" lon="4.54609">
        <ele>746</ele>
        <time>2012-07-22T07:43:48Z</time>
      </trkpt>
      <trkpt lat="45.4332" lon="4.54592">
        <ele>745</ele>
        <time>2012-07-22T07:43:53Z</time>
      </trkpt>
      <trkpt lat="45.43308" lon="4.54576">
        <ele>745</ele>
        <time>2012-07-22T07:43:58Z</time>
      </trkpt>
      <trkpt lat="45.43298" lon="4.5456">
        <ele>744</ele>
        <time>2012-07-22T07:44:03Z</time>
      </trkpt>
      <trkpt lat="45.43291" lon="4.54551">
        <ele>744</ele>
        <time>2012-07-22T07:44:06Z</time>
      </trkpt>
      <trkpt lat="45.43278" lon="4.54534">
        <ele>744</ele>
        <time>2012-07-22T07:44:12Z</time>
      </trkpt>
      <trkpt lat="45.43263" lon="4.54525">
        <ele>743</ele>
        <time>2012-07-22T07:44:17Z</time>
      </trkpt>
      <trkpt lat="45.43255" lon="4.54523">
        <ele>743</ele>
        <time>2012-07-22T07:44:20Z</time>
      </trkpt>
      <trkpt lat="45.43236" lon="4.54525">
        <ele>743</ele>
        <time>2012-07-22T07:44:29Z</time>
      </trkpt>
      <trkpt lat="45.43219" lon="4.5453">
        <ele>743</ele>
        <time>2012-07-22T07:44:38Z</time>
      </trkpt>
      <trkpt lat="45.43195" lon="4.54533">
        <ele>743</ele>
        <time>2012-07-22T07:44:47Z</time>
      </trkpt>
      <trkpt lat="45.43202" lon="4.545">
        <ele>744</ele>
        <time>2012-07-22T07:45:01Z</time>
      </trkpt>
      <trkpt lat="45.43206" lon="4.54471">
        <ele>744</ele>
        <time>2012-07-22T07:45:06Z</time>
      </trkpt>
      <trkpt lat="45.43212" lon="4.54444">
        <ele>744</ele>
        <time>2012-07-22T07:45:10Z</time>
      </trkpt>
      <trkpt lat="45.4322" lon="4.54422">
        <ele>745</ele>
        <time>2012-07-22T07:45:13Z</time>
      </trkpt>
      <trkpt lat="45.43227" lon="4.54402">
        <ele>745</ele>
        <time>2012-07-22T07:45:16Z</time>
      </trkpt>
      <trkpt lat="45.43235" lon="4.54378">
        <ele>745</ele>
        <time>2012-07-22T07:45:20Z</time>
      </trkpt>
      <trkpt lat="45.43243" lon="4.54356">
        <ele>746</ele>
        <time>2012-07-22T07:45:24Z</time>
      </trkpt>
      <trkpt lat="45.43253" lon="4.54336">
        <ele>747</ele>
        <time>2012-07-22T07:45:28Z</time>
      </trkpt>
      <trkpt lat="45.43261" lon="4.54315">
        <ele>747</ele>
        <time>2012-07-22T07:45:32Z</time>
      </trkpt>
      <trkpt lat="45.43267" lon="4.543">
        <ele>748</ele>
        <time>2012-07-22T07:45:35Z</time>
      </trkpt>
      <trkpt lat="45.43273" lon="4.54286">
        <ele>749</ele>
        <time>2012-07-22T07:45:38Z</time>
      </trkpt>
      <trkpt lat="45.43284" lon="4.54264">
        <ele>749</ele>
        <time>2012-07-22T07:45:43Z</time>
      </trkpt>
      <trkpt lat="45.43291" lon="4.54252">
        <ele>749</ele>
        <time>2012-07-22T07:45:46Z</time>
      </trkpt>
      <trkpt lat="45.43298" lon="4.5424">
        <ele>750</ele>
        <time>2012-07-22T07:45:49Z</time>
      </trkpt>
      <trkpt lat="45.43306" lon="4.54229">
        <ele>750</ele>
        <time>2012-07-22T07:45:52Z</time>
      </trkpt>
      <trkpt lat="45.43317" lon="4.54212">
        <ele>750</ele>
        <time>2012-07-22T07:45:57Z</time>
      </trkpt>
      <trkpt lat="45.43325" lon="4.54203">
        <ele>750</ele>
        <time>2012-07-22T07:46:00Z</time>
      </trkpt>
      <trkpt lat="45.43338" lon="4.54189">
        <ele>751</ele>
        <time>2012-07-22T07:46:05Z</time>
      </trkpt>
      <trkpt lat="45.43352" lon="4.54176">
        <ele>751</ele>
        <time>2012-07-22T07:46:10Z</time>
      </trkpt>
      <trkpt lat="45.43368" lon="4.54162">
        <ele>751</ele>
        <time>2012-07-22T07:46:16Z</time>
      </trkpt>
      <trkpt lat="45.43381" lon="4.54147">
        <ele>751</ele>
        <time>2012-07-22T07:46:21Z</time>
      </trkpt>
      <trkpt lat="45.43388" lon="4.54136">
        <ele>752</ele>
        <time>2012-07-22T07:46:24Z</time>
      </trkpt>
      <trkpt lat="45.43404" lon="4.5411">
        <ele>752</ele>
        <time>2012-07-22T07:46:32Z</time>
      </trkpt>
      <trkpt lat="45.43421" lon="4.54082">
        <ele>752</ele>
        <time>2012-07-22T07:46:42Z</time>
      </trkpt>
      <trkpt lat="45.43433" lon="4.54061">
        <ele>753</ele>
        <time>2012-07-22T07:46:48Z</time>
      </trkpt>
      <trkpt lat="45.43445" lon="4.54035">
        <ele>753</ele>
        <time>2012-07-22T07:46:58Z</time>
      </trkpt>
      <trkpt lat="45.43452" lon="4.54011">
        <ele>754</ele>
        <time>2012-07-22T07:47:06Z</time>
      </trkpt>
      <trkpt lat="45.43457" lon="4.53987">
        <ele>754</ele>
        <time>2012-07-22T07:47:11Z</time>
      </trkpt>
      <trkpt lat="45.43463" lon="4.53961">
        <ele>755</ele>
        <time>2012-07-22T07:47:17Z</time>
      </trkpt>
      <trkpt lat="45.43468" lon="4.53936">
        <ele>756</ele>
        <time>2012-07-22T07:47:23Z</time>
      </trkpt>
      <trkpt lat="45.43473" lon="4.53912">
        <ele>756</ele>
        <time>2012-07-22T07:47:29Z</time>
      </trkpt>
      <trkpt lat="45.43477" lon="4.53889">
        <ele>757</ele>
        <time>2012-07-22T07:47:35Z</time>
      </trkpt>
      <trkpt lat="45.43481" lon="4.53863">
        <ele>758</ele>
        <time>2012-07-22T07:47:42Z</time>
      </trkpt>
      <trkpt lat="45.43482" lon="4.53839">
        <ele>758</ele>
        <time>2012-07-22T07:47:49Z</time>
      </trkpt>
      <trkpt lat="45.43493" lon="4.53761">
        <ele>813.5</ele>
        <time>2012-07-22T07:48:30Z</time>
      </trkpt>
      <trkpt lat="45.43493" lon="4.53737">
        <ele>760</ele>
        <time>2012-07-22T07:48:39Z</time>
      </trkpt>
      <trkpt lat="45.43477" lon="4.53687">
        <ele>820.8</ele>
        <time>2012-07-22T07:49:09Z</time>
      </trkpt>
      <trkpt lat="45.43466" lon="4.53662">
        <ele>762</ele>
        <time>2012-07-22T07:49:26Z</time>
      </trkpt>
      <trkpt lat="45.43453" lon="4.53646">
        <ele>764</ele>
        <time>2012-07-22T07:49:34Z</time>
      </trkpt>
      <trkpt lat="45.43445" lon="4.53639">
        <ele>765</ele>
        <time>2012-07-22T07:49:38Z</time>
      </trkpt>
      <trkpt lat="45.4343" lon="4.53639">
        <ele>766</ele>
        <time>2012-07-22T07:49:45Z</time>
      </trkpt>
      <trkpt lat="45.43416" lon="4.53648">
        <ele>767</ele>
        <time>2012-07-22T07:49:53Z</time>
      </trkpt>
      <trkpt lat="45.43403" lon="4.53657">
        <ele>768</ele>
        <time>2012-07-22T07:50:01Z</time>
      </trkpt>
      <trkpt lat="45.43388" lon="4.53668">
        <ele>769</ele>
        <time>2012-07-22T07:50:11Z</time>
      </trkpt>
      <trkpt lat="45.43372" lon="4.53674">
        <ele>770</ele>
        <time>2012-07-22T07:50:28Z</time>
      </trkpt>
      <trkpt lat="45.43356" lon="4.53682">
        <ele>771</ele>
        <time>2012-07-22T07:50:43Z</time>
      </trkpt>
      <trkpt lat="45.43342" lon="4.53691">
        <ele>772</ele>
        <time>2012-07-22T07:50:56Z</time>
      </trkpt>
      <trkpt lat="45.4331" lon="4.537">
        <ele>774</ele>
        <time>2012-07-22T07:51:22Z</time>
      </trkpt>
      <trkpt lat="45.43294" lon="4.53708">
        <ele>776</ele>
        <time>2012-07-22T07:51:31Z</time>
      </trkpt>
      <trkpt lat="45.43279" lon="4.5372">
        <ele>778</ele>
        <time>2012-07-22T07:51:40Z</time>
      </trkpt>
      <trkpt lat="45.43266" lon="4.53735">
        <ele>781</ele>
        <time>2012-07-22T07:51:51Z</time>
      </trkpt>
      <trkpt lat="45.43243" lon="4.53774">
        <ele>782</ele>
        <time>2012-07-22T07:52:09Z</time>
      </trkpt>
      <trkpt lat="45.43219" lon="4.53813">
        <ele>783</ele>
        <time>2012-07-22T07:52:24Z</time>
      </trkpt>
      <trkpt lat="45.43207" lon="4.53831">
        <ele>784</ele>
        <time>2012-07-22T07:52:32Z</time>
      </trkpt>
      <trkpt lat="45.43198" lon="4.53852">
        <ele>785</ele>
        <time>2012-07-22T07:52:40Z</time>
      </trkpt>
      <trkpt lat="45.43185" lon="4.53873">
        <ele>786</ele>
        <time>2012-07-22T07:52:48Z</time>
      </trkpt>
      <trkpt lat="45.4317" lon="4.5389">
        <ele>787</ele>
        <time>2012-07-22T07:52:55Z</time>
      </trkpt>
      <trkpt lat="45.43147" lon="4.53927">
        <ele>787</ele>
        <time>2012-07-22T07:53:09Z</time>
      </trkpt>
      <trkpt lat="45.43118" lon="4.5401">
        <ele>787</ele>
        <time>2012-07-22T07:53:31Z</time>
      </trkpt>
      <trkpt lat="45.43114" lon="4.54032">
        <ele>788</ele>
        <time>2012-07-22T07:53:35Z</time>
      </trkpt>
      <trkpt lat="45.43106" lon="4.54127">
        <ele>846.3</ele>
        <time>2012-07-22T07:53:52Z</time>
      </trkpt>
      <trkpt lat="45.43091" lon="4.54158">
        <ele>788</ele>
        <time>2012-07-22T07:53:59Z</time>
      </trkpt>
      <trkpt lat="45.43077" lon="4.54172">
        <ele>789</ele>
        <time>2012-07-22T07:54:04Z</time>
      </trkpt>
      <trkpt lat="45.43065" lon="4.54182">
        <ele>790</ele>
        <time>2012-07-22T07:54:09Z</time>
      </trkpt>
      <trkpt lat="45.43052" lon="4.54196">
        <ele>792</ele>
        <time>2012-07-22T07:54:17Z</time>
      </trkpt>
      <trkpt lat="45.43044" lon="4.54205">
        <ele>792</ele>
        <time>2012-07-22T07:54:23Z</time>
      </trkpt>
      <trkpt lat="45.43034" lon="4.54221">
        <ele>793</ele>
        <time>2012-07-22T07:54:30Z</time>
      </trkpt>
      <trkpt lat="45.43016" lon="4.54236">
        <ele>794</ele>
        <time>2012-07-22T07:54:39Z</time>
      </trkpt>
      <trkpt lat="45.43009" lon="4.54244">
        <ele>794</ele>
        <time>2012-07-22T07:54:43Z</time>
      </trkpt>
      <trkpt lat="45.43001" lon="4.54254">
        <ele>794</ele>
        <time>2012-07-22T07:54:48Z</time>
      </trkpt>
      <trkpt lat="45.42989" lon="4.54274">
        <ele>795</ele>
        <time>2012-07-22T07:54:57Z</time>
      </trkpt>
      <trkpt lat="45.42977" lon="4.54303">
        <ele>796</ele>
        <time>2012-07-22T07:55:07Z</time>
      </trkpt>
      <trkpt lat="45.42966" lon="4.54328">
        <ele>797</ele>
        <time>2012-07-22T07:55:16Z</time>
      </trkpt>
      <trkpt lat="45.42951" lon="4.54353">
        <ele>798</ele>
        <time>2012-07-22T07:55:28Z</time>
      </trkpt>
      <trkpt lat="45.42945" lon="4.54362">
        <ele>799</ele>
        <time>2012-07-22T07:55:32Z</time>
      </trkpt>
      <trkpt lat="45.42931" lon="4.54382">
        <ele>799</ele>
        <time>2012-07-22T07:55:41Z</time>
      </trkpt>
      <trkpt lat="45.42917" lon="4.54401">
        <ele>800</ele>
        <time>2012-07-22T07:55:50Z</time>
      </trkpt>
      <trkpt lat="45.42907" lon="4.54407">
        <ele>800</ele>
        <time>2012-07-22T07:55:55Z</time>
      </trkpt>
      <trkpt lat="45.42893" lon="4.54417">
        <ele>801</ele>
        <time>2012-07-22T07:56:02Z</time>
      </trkpt>
      <trkpt lat="45.42878" lon="4.54427">
        <ele>802</ele>
        <time>2012-07-22T07:56:11Z</time>
      </trkpt>
      <trkpt lat="45.42861" lon="4.54433">
        <ele>803</ele>
        <time>2012-07-22T07:56:23Z</time>
      </trkpt>
      <trkpt lat="45.42846" lon="4.54436">
        <ele>804</ele>
        <time>2012-07-22T07:56:32Z</time>
      </trkpt>
      <trkpt lat="45.42829" lon="4.54436">
        <ele>806</ele>
        <time>2012-07-22T07:56:41Z</time>
      </trkpt>
      <trkpt lat="45.42819" lon="4.54439">
        <ele>808</ele>
        <time>2012-07-22T07:56:46Z</time>
      </trkpt>
      <trkpt lat="45.42805" lon="4.54444">
        <ele>809</ele>
        <time>2012-07-22T07:56:54Z</time>
      </trkpt>
      <trkpt lat="45.42796" lon="4.54447">
        <ele>810</ele>
        <time>2012-07-22T07:56:59Z</time>
      </trkpt>
      <trkpt lat="45.42777" lon="4.54455">
        <ele>814</ele>
        <time>2012-07-22T07:57:15Z</time>
      </trkpt>
      <trkpt lat="45.4276" lon="4.54458">
        <ele>816</ele>
        <time>2012-07-22T07:57:28Z</time>
      </trkpt>
      <trkpt lat="45.42745" lon="4.54459">
        <ele>819</ele>
        <time>2012-07-22T07:57:40Z</time>
      </trkpt>
      <trkpt lat="45.42728" lon="4.54464">
        <ele>821</ele>
        <time>2012-07-22T07:57:51Z</time>
      </trkpt>
      <trkpt lat="45.42718" lon="4.54469">
        <ele>824</ele>
        <time>2012-07-22T07:57:58Z</time>
      </trkpt>
      <trkpt lat="45.42708" lon="4.54472">
        <ele>827</ele>
        <time>2012-07-22T07:58:04Z</time>
      </trkpt>
      <trkpt lat="45.42697" lon="4.54476">
        <ele>829</ele>
        <time>2012-07-22T07:58:12Z</time>
      </trkpt>
      <trkpt lat="45.42681" lon="4.54487">
        <ele>831</ele>
        <time>2012-07-22T07:58:27Z</time>
      </trkpt>
      <trkpt lat="45.42659" lon="4.54499">
        <ele>832</ele>
        <time>2012-07-22T07:58:42Z</time>
      </trkpt>
      <trkpt lat="45.42645" lon="4.54504">
        <ele>833</ele>
        <time>2012-07-22T07:58:48Z</time>
      </trkpt>
      <trkpt lat="45.4263" lon="4.5451">
        <ele>834</ele>
        <time>2012-07-22T07:58:55Z</time>
      </trkpt>
      <trkpt lat="45.42601" lon="4.54533">
        <ele>835</ele>
        <time>2012-07-22T07:59:08Z</time>
      </trkpt>
      <trkpt lat="45.42583" lon="4.54545">
        <ele>835</ele>
        <time>2012-07-22T07:59:18Z</time>
      </trkpt>
      <trkpt lat="45.42564" lon="4.54555">
        <ele>834</ele>
        <time>2012-07-22T07:59:25Z</time>
      </trkpt>
      <trkpt lat="45.42533" lon="4.54571">
        <ele>834</ele>
        <time>2012-07-22T07:59:35Z</time>
      </trkpt>
      <trkpt lat="45.42518" lon="4.54577">
        <ele>834</ele>
        <time>2012-07-22T07:59:40Z</time>
      </trkpt>
      <trkpt lat="45.42483" lon="4.54588">
        <ele>833</ele>
        <time>2012-07-22T07:59:51Z</time>
      </trkpt>
      <trkpt lat="45.42448" lon="4.54603">
        <ele>833</ele>
        <time>2012-07-22T08:00:01Z</time>
      </trkpt>
      <trkpt lat="45.42431" lon="4.54611">
        <ele>833</ele>
        <time>2012-07-22T08:00:07Z</time>
      </trkpt>
      <trkpt lat="45.42416" lon="4.54618">
        <ele>833</ele>
        <time>2012-07-22T08:00:14Z</time>
      </trkpt>
      <trkpt lat="45.424" lon="4.54624">
        <ele>832</ele>
        <time>2012-07-22T08:00:19Z</time>
      </trkpt>
      <trkpt lat="45.42385" lon="4.5463">
        <ele>832</ele>
        <time>2012-07-22T08:00:23Z</time>
      </trkpt>
      <trkpt lat="45.4237" lon="4.54635">
        <ele>833</ele>
        <time>2012-07-22T08:00:27Z</time>
      </trkpt>
      <trkpt lat="45.42358" lon="4.54638">
        <ele>833</ele>
        <time>2012-07-22T08:00:30Z</time>
      </trkpt>
      <trkpt lat="45.42344" lon="4.54643">
        <ele>834</ele>
        <time>2012-07-22T08:00:34Z</time>
      </trkpt>
      <trkpt lat="45.42326" lon="4.54648">
        <ele>834</ele>
        <time>2012-07-22T08:00:39Z</time>
      </trkpt>
      <trkpt lat="45.42311" lon="4.54652">
        <ele>835</ele>
        <time>2012-07-22T08:00:43Z</time>
      </trkpt>
      <trkpt lat="45.42295" lon="4.54656">
        <ele>836</ele>
        <time>2012-07-22T08:00:47Z</time>
      </trkpt>
      <trkpt lat="45.42279" lon="4.54656">
        <ele>837</ele>
        <time>2012-07-22T08:00:51Z</time>
      </trkpt>
      <trkpt lat="45.4226" lon="4.54655">
        <ele>837</ele>
        <time>2012-07-22T08:00:56Z</time>
      </trkpt>
      <trkpt lat="45.42242" lon="4.54648">
        <ele>838</ele>
        <time>2012-07-22T08:01:01Z</time>
      </trkpt>
      <trkpt lat="45.42221" lon="4.54636">
        <ele>839</ele>
        <time>2012-07-22T08:01:06Z</time>
      </trkpt>
      <trkpt lat="45.42213" lon="4.54632">
        <ele>839</ele>
        <time>2012-07-22T08:01:08Z</time>
      </trkpt>
      <trkpt lat="45.42197" lon="4.54626">
        <ele>839</ele>
        <time>2012-07-22T08:01:12Z</time>
      </trkpt>
      <trkpt lat="45.42188" lon="4.54623">
        <ele>840</ele>
        <time>2012-07-22T08:01:14Z</time>
      </trkpt>
      <trkpt lat="45.42179" lon="4.5462">
        <ele>840</ele>
        <time>2012-07-22T08:01:17Z</time>
      </trkpt>
      <trkpt lat="45.42166" lon="4.54609">
        <ele>840</ele>
        <time>2012-07-22T08:01:24Z</time>
      </trkpt>
      <trkpt lat="45.42148" lon="4.54604">
        <ele>840</ele>
        <time>2012-07-22T08:01:40Z</time>
      </trkpt>
      <trkpt lat="45.42131" lon="4.546">
        <ele>840</ele>
        <time>2012-07-22T08:01:47Z</time>
      </trkpt>
      <trkpt lat="45.42116" lon="4.546">
        <ele>839</ele>
        <time>2012-07-22T08:01:52Z</time>
      </trkpt>
      <trkpt lat="45.42099" lon="4.54602">
        <ele>839</ele>
        <time>2012-07-22T08:01:57Z</time>
      </trkpt>
      <trkpt lat="45.42083" lon="4.54612">
        <ele>838</ele>
        <time>2012-07-22T08:02:03Z</time>
      </trkpt>
      <trkpt lat="45.42068" lon="4.54623">
        <ele>838</ele>
        <time>2012-07-22T08:02:08Z</time>
      </trkpt>
      <trkpt lat="45.42051" lon="4.54636">
        <ele>837</ele>
        <time>2012-07-22T08:02:14Z</time>
      </trkpt>
      <trkpt lat="45.42042" lon="4.54644">
        <ele>837</ele>
        <time>2012-07-22T08:02:17Z</time>
      </trkpt>
      <trkpt lat="45.42034" lon="4.5465">
        <ele>837</ele>
        <time>2012-07-22T08:02:19Z</time>
      </trkpt>
      <trkpt lat="45.42025" lon="4.54657">
        <ele>837</ele>
        <time>2012-07-22T08:02:21Z</time>
      </trkpt>
      <trkpt lat="45.42011" lon="4.54671">
        <ele>837</ele>
        <time>2012-07-22T08:02:24Z</time>
      </trkpt>
      <trkpt lat="45.42001" lon="4.54679">
        <ele>836</ele>
        <time>2012-07-22T08:02:26Z</time>
      </trkpt>
      <trkpt lat="45.41986" lon="4.54691">
        <ele>836</ele>
        <time>2012-07-22T08:02:29Z</time>
      </trkpt>
      <trkpt lat="45.41972" lon="4.54703">
        <ele>836</ele>
        <time>2012-07-22T08:02:32Z</time>
      </trkpt>
      <trkpt lat="45.41955" lon="4.54715">
        <ele>836</ele>
        <time>2012-07-22T08:02:36Z</time>
      </trkpt>
      <trkpt lat="45.41946" lon="4.54719">
        <ele>836</ele>
        <time>2012-07-22T08:02:39Z</time>
      </trkpt>
      <trkpt lat="45.41938" lon="4.54723">
        <ele>836</ele>
        <time>2012-07-22T08:02:44Z</time>
      </trkpt>
      <trkpt lat="45.41927" lon="4.54732">
        <ele>836</ele>
        <time>2012-07-22T08:02:54Z</time>
      </trkpt>
      <trkpt lat="45.4191" lon="4.54742">
        <ele>837</ele>
        <time>2012-07-22T08:02:59Z</time>
      </trkpt>
      <trkpt lat="45.41895" lon="4.54751">
        <ele>837</ele>
        <time>2012-07-22T08:03:05Z</time>
      </trkpt>
      <trkpt lat="45.41879" lon="4.54759">
        <ele>837</ele>
        <time>2012-07-22T08:03:10Z</time>
      </trkpt>
      <trkpt lat="45.4187" lon="4.54764">
        <ele>837</ele>
        <time>2012-07-22T08:03:12Z</time>
      </trkpt>
      <trkpt lat="45.41856" lon="4.54772">
        <ele>837</ele>
        <time>2012-07-22T08:03:15Z</time>
      </trkpt>
      <trkpt lat="45.41841" lon="4.54779">
        <ele>837</ele>
        <time>2012-07-22T08:03:18Z</time>
      </trkpt>
      <trkpt lat="45.41822" lon="4.54786">
        <ele>836</ele>
        <time>2012-07-22T08:03:22Z</time>
      </trkpt>
      <trkpt lat="45.41806" lon="4.54789">
        <ele>836</ele>
        <time>2012-07-22T08:03:25Z</time>
      </trkpt>
      <trkpt lat="45.41786" lon="4.5479">
        <ele>836</ele>
        <time>2012-07-22T08:03:29Z</time>
      </trkpt>
      <trkpt lat="45.41768" lon="4.54794">
        <ele>835</ele>
        <time>2012-07-22T08:03:34Z</time>
      </trkpt>
      <trkpt lat="45.41752" lon="4.54798">
        <ele>834</ele>
        <time>2012-07-22T08:03:41Z</time>
      </trkpt>
      <trkpt lat="45.41735" lon="4.54801">
        <ele>834</ele>
        <time>2012-07-22T08:03:47Z</time>
      </trkpt>
      <trkpt lat="45.41725" lon="4.54803">
        <ele>834</ele>
        <time>2012-07-22T08:03:50Z</time>
      </trkpt>
      <trkpt lat="45.41714" lon="4.54805">
        <ele>833</ele>
        <time>2012-07-22T08:03:54Z</time>
      </trkpt>
      <trkpt lat="45.41698" lon="4.54807">
        <ele>832</ele>
        <time>2012-07-22T08:04:00Z</time>
      </trkpt>
      <trkpt lat="45.41682" lon="4.54806">
        <ele>832</ele>
        <time>2012-07-22T08:04:06Z</time>
      </trkpt>
      <trkpt lat="45.41665" lon="4.54806">
        <ele>831</ele>
        <time>2012-07-22T08:04:12Z</time>
      </trkpt>
      <trkpt lat="45.41656" lon="4.54805">
        <ele>830</ele>
        <time>2012-07-22T08:04:15Z</time>
      </trkpt>
      <trkpt lat="45.41639" lon="4.54808">
        <ele>829</ele>
        <time>2012-07-22T08:04:21Z</time>
      </trkpt>
      <trkpt lat="45.41623" lon="4.54813">
        <ele>828</ele>
        <time>2012-07-22T08:04:27Z</time>
      </trkpt>
      <trkpt lat="45.41607" lon="4.54827">
        <ele>828</ele>
        <time>2012-07-22T08:04:34Z</time>
      </trkpt>
      <trkpt lat="45.41601" lon="4.5485">
        <ele>826</ele>
        <time>2012-07-22T08:04:40Z</time>
      </trkpt>
      <trkpt lat="45.41618" lon="4.5486">
        <ele>826</ele>
        <time>2012-07-22T08:04:45Z</time>
      </trkpt>
      <trkpt lat="45.41634" lon="4.54864">
        <ele>824</ele>
        <time>2012-07-22T08:04:49Z</time>
      </trkpt>
      <trkpt lat="45.41653" lon="4.54867">
        <ele>823</ele>
        <time>2012-07-22T08:04:53Z</time>
      </trkpt>
      <trkpt lat="45.4167" lon="4.54869">
        <ele>821</ele>
        <time>2012-07-22T08:04:57Z</time>
      </trkpt>
      <trkpt lat="45.41688" lon="4.5487">
        <ele>819</ele>
        <time>2012-07-22T08:05:01Z</time>
      </trkpt>
      <trkpt lat="45.41705" lon="4.5487">
        <ele>818</ele>
        <time>2012-07-22T08:05:05Z</time>
      </trkpt>
      <trkpt lat="45.41722" lon="4.54868">
        <ele>817</ele>
        <time>2012-07-22T08:05:09Z</time>
      </trkpt>
      <trkpt lat="45.41739" lon="4.54865">
        <ele>816</ele>
        <time>2012-07-22T08:05:13Z</time>
      </trkpt>
      <trkpt lat="45.41755" lon="4.54863">
        <ele>815</ele>
        <time>2012-07-22T08:05:16Z</time>
      </trkpt>
      <trkpt lat="45.41771" lon="4.54861">
        <ele>814</ele>
        <time>2012-07-22T08:05:19Z</time>
      </trkpt>
      <trkpt lat="45.41789" lon="4.54859">
        <ele>813</ele>
        <time>2012-07-22T08:05:22Z</time>
      </trkpt>
      <trkpt lat="45.41809" lon="4.54858">
        <ele>812</ele>
        <time>2012-07-22T08:05:25Z</time>
      </trkpt>
      <trkpt lat="45.41826" lon="4.54857">
        <ele>811</ele>
        <time>2012-07-22T08:05:28Z</time>
      </trkpt>
      <trkpt lat="45.41842" lon="4.54854">
        <ele>810</ele>
        <time>2012-07-22T08:05:31Z</time>
      </trkpt>
      <trkpt lat="45.41858" lon="4.54849">
        <ele>809</ele>
        <time>2012-07-22T08:05:34Z</time>
      </trkpt>
      <trkpt lat="45.41878" lon="4.54844">
        <ele>808</ele>
        <time>2012-07-22T08:05:38Z</time>
      </trkpt>
      <trkpt lat="45.41891" lon="4.54845">
        <ele>807</ele>
        <time>2012-07-22T08:05:41Z</time>
      </trkpt>
      <trkpt lat="45.41906" lon="4.54841">
        <ele>806</ele>
        <time>2012-07-22T08:05:45Z</time>
      </trkpt>
      <trkpt lat="45.41915" lon="4.54836">
        <ele>805</ele>
        <time>2012-07-22T08:05:48Z</time>
      </trkpt>
      <trkpt lat="45.41931" lon="4.54831">
        <ele>804</ele>
        <time>2012-07-22T08:05:53Z</time>
      </trkpt>
      <trkpt lat="45.41947" lon="4.54826">
        <ele>803</ele>
        <time>2012-07-22T08:05:58Z</time>
      </trkpt>
      <trkpt lat="45.41957" lon="4.54822">
        <ele>803</ele>
        <time>2012-07-22T08:06:01Z</time>
      </trkpt>
      <trkpt lat="45.41973" lon="4.54815">
        <ele>802</ele>
        <time>2012-07-22T08:06:07Z</time>
      </trkpt>
      <trkpt lat="45.4199" lon="4.54801">
        <ele>802</ele>
        <time>2012-07-22T08:06:15Z</time>
      </trkpt>
      <trkpt lat="45.42018" lon="4.54791">
        <ele>801</ele>
        <time>2012-07-22T08:06:24Z</time>
      </trkpt>
      <trkpt lat="45.42037" lon="4.54784">
        <ele>801</ele>
        <time>2012-07-22T08:06:29Z</time>
      </trkpt>
      <trkpt lat="45.42053" lon="4.54778">
        <ele>800</ele>
        <time>2012-07-22T08:06:33Z</time>
      </trkpt>
      <trkpt lat="45.42076" lon="4.54773">
        <ele>800</ele>
        <time>2012-07-22T08:06:39Z</time>
      </trkpt>
      <trkpt lat="45.42091" lon="4.54769">
        <ele>800</ele>
        <time>2012-07-22T08:06:43Z</time>
      </trkpt>
      <trkpt lat="45.42107" lon="4.54768">
        <ele>799</ele>
        <time>2012-07-22T08:06:47Z</time>
      </trkpt>
      <trkpt lat="45.42123" lon="4.54769">
        <ele>799</ele>
        <time>2012-07-22T08:06:51Z</time>
      </trkpt>
      <trkpt lat="45.42139" lon="4.54771">
        <ele>799</ele>
        <time>2012-07-22T08:06:55Z</time>
      </trkpt>
      <trkpt lat="45.42159" lon="4.54772">
        <ele>798</ele>
        <time>2012-07-22T08:07:00Z</time>
      </trkpt>
      <trkpt lat="45.42179" lon="4.54778">
        <ele>798</ele>
        <time>2012-07-22T08:07:05Z</time>
      </trkpt>
      <trkpt lat="45.42199" lon="4.54791">
        <ele>798</ele>
        <time>2012-07-22T08:07:11Z</time>
      </trkpt>
      <trkpt lat="45.42217" lon="4.54808">
        <ele>799</ele>
        <time>2012-07-22T08:07:21Z</time>
      </trkpt>
      <trkpt lat="45.42235" lon="4.54823">
        <ele>799</ele>
        <time>2012-07-22T08:07:28Z</time>
      </trkpt>
      <trkpt lat="45.42248" lon="4.54835">
        <ele>800</ele>
        <time>2012-07-22T08:07:33Z</time>
      </trkpt>
      <trkpt lat="45.4226" lon="4.54849">
        <ele>800</ele>
        <time>2012-07-22T08:07:38Z</time>
      </trkpt>
      <trkpt lat="45.42274" lon="4.54863">
        <ele>800</ele>
        <time>2012-07-22T08:07:43Z</time>
      </trkpt>
      <trkpt lat="45.42282" lon="4.5487">
        <ele>800</ele>
        <time>2012-07-22T08:07:46Z</time>
      </trkpt>
      <trkpt lat="45.42296" lon="4.54879">
        <ele>801</ele>
        <time>2012-07-22T08:07:51Z</time>
      </trkpt>
      <trkpt lat="45.42317" lon="4.54893">
        <ele>801</ele>
        <time>2012-07-22T08:07:59Z</time>
      </trkpt>
      <trkpt lat="45.42342" lon="4.54916">
        <ele>800</ele>
        <time>2012-07-22T08:08:14Z</time>
      </trkpt>
      <trkpt lat="45.42365" lon="4.5494">
        <ele>801</ele>
        <time>2012-07-22T08:08:27Z</time>
      </trkpt>
      <trkpt lat="45.42379" lon="4.54959">
        <ele>801</ele>
        <time>2012-07-22T08:08:31Z</time>
      </trkpt>
      <trkpt lat="45.42397" lon="4.54986">
        <ele>801</ele>
        <time>2012-07-22T08:08:36Z</time>
      </trkpt>
      <trkpt lat="45.42407" lon="4.55003">
        <ele>801</ele>
        <time>2012-07-22T08:08:39Z</time>
      </trkpt>
      <trkpt lat="45.42421" lon="4.55024">
        <ele>801</ele>
        <time>2012-07-22T08:08:43Z</time>
      </trkpt>
      <trkpt lat="45.42448" lon="4.55038">
        <ele>802</ele>
        <time>2012-07-22T08:08:51Z</time>
      </trkpt>
      <trkpt lat="45.42465" lon="4.55039">
        <ele>802</ele>
        <time>2012-07-22T08:08:57Z</time>
      </trkpt>
      <trkpt lat="45.42483" lon="4.55035">
        <ele>802</ele>
        <time>2012-07-22T08:09:02Z</time>
      </trkpt>
      <trkpt lat="45.42629" lon="4.54979">
        <ele>801</ele>
        <time>2012-07-22T08:09:21Z</time>
      </trkpt>
      <trkpt lat="45.42659" lon="4.54972">
        <ele>801</ele>
        <time>2012-07-22T08:09:24Z</time>
      </trkpt>
      <trkpt lat="45.42679" lon="4.54969">
        <ele>801</ele>
        <time>2012-07-22T08:09:26Z</time>
      </trkpt>
      <trkpt lat="45.42698" lon="4.54965">
        <ele>800</ele>
        <time>2012-07-22T08:09:28Z</time>
      </trkpt>
      <trkpt lat="45.42717" lon="4.54963">
        <ele>800</ele>
        <time>2012-07-22T08:09:30Z</time>
      </trkpt>
      <trkpt lat="45.42736" lon="4.54959">
        <ele>799</ele>
        <time>2012-07-22T08:09:32Z</time>
      </trkpt>
      <trkpt lat="45.42754" lon="4.54956">
        <ele>799</ele>
        <time>2012-07-22T08:09:34Z</time>
      </trkpt>
      <trkpt lat="45.4277" lon="4.5495">
        <ele>798</ele>
        <time>2012-07-22T08:09:36Z</time>
      </trkpt>
      <trkpt lat="45.42785" lon="4.54943">
        <ele>798</ele>
        <time>2012-07-22T08:09:38Z</time>
      </trkpt>
      <trkpt lat="45.42804" lon="4.54932">
        <ele>797</ele>
        <time>2012-07-22T08:09:41Z</time>
      </trkpt>
      <trkpt lat="45.42822" lon="4.54923">
        <ele>797</ele>
        <time>2012-07-22T08:09:45Z</time>
      </trkpt>
      <trkpt lat="45.42839" lon="4.54917">
        <ele>796</ele>
        <time>2012-07-22T08:09:47Z</time>
      </trkpt>
      <trkpt lat="45.42856" lon="4.54907">
        <ele>795</ele>
        <time>2012-07-22T08:09:50Z</time>
      </trkpt>
      <trkpt lat="45.42873" lon="4.54893">
        <ele>794</ele>
        <time>2012-07-22T08:09:53Z</time>
      </trkpt>
      <trkpt lat="45.4289" lon="4.54876">
        <ele>793</ele>
        <time>2012-07-22T08:09:56Z</time>
      </trkpt>
      <trkpt lat="45.42917" lon="4.54845">
        <ele>793</ele>
        <time>2012-07-22T08:10:01Z</time>
      </trkpt>
      <trkpt lat="45.42988" lon="4.54762">
        <ele>791</ele>
        <time>2012-07-22T08:10:14Z</time>
      </trkpt>
      <trkpt lat="45.43" lon="4.54749">
        <ele>790</ele>
        <time>2012-07-22T08:10:16Z</time>
      </trkpt>
      <trkpt lat="45.43013" lon="4.54735">
        <ele>789</ele>
        <time>2012-07-22T08:10:18Z</time>
      </trkpt>
      <trkpt lat="45.43032" lon="4.54714">
        <ele>788</ele>
        <time>2012-07-22T08:10:21Z</time>
      </trkpt>
      <trkpt lat="45.43052" lon="4.54697">
        <ele>787</ele>
        <time>2012-07-22T08:10:24Z</time>
      </trkpt>
      <trkpt lat="45.43068" lon="4.54683">
        <ele>785</ele>
        <time>2012-07-22T08:10:27Z</time>
      </trkpt>
      <trkpt lat="45.4308" lon="4.54669">
        <ele>780</ele>
        <time>2012-07-22T08:10:34Z</time>
      </trkpt>
      <trkpt lat="45.43099" lon="4.54648">
        <ele>776</ele>
        <time>2012-07-22T08:10:45Z</time>
      </trkpt>
      <trkpt lat="45.43112" lon="4.54626">
        <ele>772</ele>
        <time>2012-07-22T08:10:54Z</time>
      </trkpt>
      <trkpt lat="45.43123" lon="4.54607">
        <ele>769</ele>
        <time>2012-07-22T08:10:59Z</time>
      </trkpt>
      <trkpt lat="45.43135" lon="4.54588">
        <ele>766</ele>
        <time>2012-07-22T08:11:04Z</time>
      </trkpt>
      <trkpt lat="45.43145" lon="4.54569">
        <ele>762</ele>
        <time>2012-07-22T08:11:10Z</time>
      </trkpt>
      <trkpt lat="45.43159" lon="4.54548">
        <ele>759</ele>
        <time>2012-07-22T08:11:18Z</time>
      </trkpt>
      <trkpt lat="45.43175" lon="4.54541">
        <ele>757</ele>
        <time>2012-07-22T08:11:22Z</time>
      </trkpt>
      <trkpt lat="45.43191" lon="4.54538">
        <ele>756</ele>
        <time>2012-07-22T08:11:26Z</time>
      </trkpt>
      <trkpt lat="45.43208" lon="4.54535">
        <ele>754</ele>
        <time>2012-07-22T08:11:30Z</time>
      </trkpt>
      <trkpt lat="45.43225" lon="4.54531">
        <ele>753</ele>
        <time>2012-07-22T08:11:34Z</time>
      </trkpt>
      <trkpt lat="45.43247" lon="4.54534">
        <ele>752</ele>
        <time>2012-07-22T08:11:37Z</time>
      </trkpt>
      <trkpt lat="45.43267" lon="4.54543">
        <ele>751</ele>
        <time>2012-07-22T08:11:40Z</time>
      </trkpt>
      <trkpt lat="45.43283" lon="4.54558">
        <ele>751</ele>
        <time>2012-07-22T08:11:43Z</time>
      </trkpt>
      <trkpt lat="45.43294" lon="4.54569">
        <ele>750</ele>
        <time>2012-07-22T08:11:45Z</time>
      </trkpt>
      <trkpt lat="45.43308" lon="4.54589">
        <ele>749</ele>
        <time>2012-07-22T08:11:48Z</time>
      </trkpt>
      <trkpt lat="45.43318" lon="4.54602">
        <ele>749</ele>
        <time>2012-07-22T08:11:50Z</time>
      </trkpt>
      <trkpt lat="45.43332" lon="4.54624">
        <ele>748</ele>
        <time>2012-07-22T08:11:53Z</time>
      </trkpt>
      <trkpt lat="45.43344" lon="4.54647">
        <ele>747</ele>
        <time>2012-07-22T08:11:56Z</time>
      </trkpt>
      <trkpt lat="45.4335" lon="4.54675">
        <ele>747</ele>
        <time>2012-07-22T08:11:59Z</time>
      </trkpt>
      <trkpt lat="45.43351" lon="4.54703">
        <ele>746</ele>
        <time>2012-07-22T08:12:02Z</time>
      </trkpt>
      <trkpt lat="45.43352" lon="4.54718">
        <ele>745</ele>
        <time>2012-07-22T08:12:04Z</time>
      </trkpt>
      <trkpt lat="45.43354" lon="4.5473">
        <ele>744</ele>
        <time>2012-07-22T08:12:06Z</time>
      </trkpt>
      <trkpt lat="45.43359" lon="4.54754">
        <ele>743</ele>
        <time>2012-07-22T08:12:11Z</time>
      </trkpt>
      <trkpt lat="45.43371" lon="4.54773">
        <ele>742</ele>
        <time>2012-07-22T08:12:17Z</time>
      </trkpt>
      <trkpt lat="45.43385" lon="4.5479">
        <ele>741</ele>
        <time>2012-07-22T08:12:23Z</time>
      </trkpt>
      <trkpt lat="45.43399" lon="4.54811">
        <ele>740</ele>
        <time>2012-07-22T08:12:30Z</time>
      </trkpt>
      <trkpt lat="45.43405" lon="4.54819">
        <ele>740</ele>
        <time>2012-07-22T08:12:33Z</time>
      </trkpt>
      <trkpt lat="45.43418" lon="4.54836">
        <ele>740</ele>
        <time>2012-07-22T08:12:39Z</time>
      </trkpt>
      <trkpt lat="45.43427" lon="4.54848">
        <ele>739</ele>
        <time>2012-07-22T08:12:43Z</time>
      </trkpt>
      <trkpt lat="45.43433" lon="4.54856">
        <ele>739</ele>
        <time>2012-07-22T08:12:46Z</time>
      </trkpt>
      <trkpt lat="45.43444" lon="4.54874">
        <ele>739</ele>
        <time>2012-07-22T08:12:52Z</time>
      </trkpt>
      <trkpt lat="45.43455" lon="4.54891">
        <ele>739</ele>
        <time>2012-07-22T08:12:58Z</time>
      </trkpt>
      <trkpt lat="45.43461" lon="4.54901">
        <ele>739</ele>
        <time>2012-07-22T08:13:02Z</time>
      </trkpt>
      <trkpt lat="45.43471" lon="4.54921">
        <ele>740</ele>
        <time>2012-07-22T08:13:09Z</time>
      </trkpt>
      <trkpt lat="45.43477" lon="4.54933">
        <ele>740</ele>
        <time>2012-07-22T08:13:13Z</time>
      </trkpt>
      <trkpt lat="45.43485" lon="4.54952">
        <ele>741</ele>
        <time>2012-07-22T08:13:19Z</time>
      </trkpt>
      <trkpt lat="45.43494" lon="4.54972">
        <ele>741</ele>
        <time>2012-07-22T08:13:25Z</time>
      </trkpt>
      <trkpt lat="45.43504" lon="4.54991">
        <ele>742</ele>
        <time>2012-07-22T08:13:31Z</time>
      </trkpt>
      <trkpt lat="45.43513" lon="4.55011">
        <ele>743</ele>
        <time>2012-07-22T08:13:37Z</time>
      </trkpt>
      <trkpt lat="45.43522" lon="4.55023">
        <ele>743</ele>
        <time>2012-07-22T08:13:41Z</time>
      </trkpt>
      <trkpt lat="45.43531" lon="4.55041">
        <ele>744</ele>
        <time>2012-07-22T08:13:47Z</time>
      </trkpt>
      <trkpt lat="45.43538" lon="4.55061">
        <ele>744</ele>
        <time>2012-07-22T08:13:53Z</time>
      </trkpt>
      <trkpt lat="45.43544" lon="4.55078">
        <ele>745</ele>
        <time>2012-07-22T08:13:58Z</time>
      </trkpt>
      <trkpt lat="45.43554" lon="4.55099">
        <ele>745</ele>
        <time>2012-07-22T08:14:05Z</time>
      </trkpt>
      <trkpt lat="45.43566" lon="4.55117">
        <ele>746</ele>
        <time>2012-07-22T08:14:10Z</time>
      </trkpt>
      <trkpt lat="45.43578" lon="4.55134">
        <ele>747</ele>
        <time>2012-07-22T08:14:15Z</time>
      </trkpt>
      <trkpt lat="45.43594" lon="4.55158">
        <ele>749</ele>
        <time>2012-07-22T08:14:25Z</time>
      </trkpt>
      <trkpt lat="45.43609" lon="4.55176">
        <ele>751</ele>
        <time>2012-07-22T08:14:33Z</time>
      </trkpt>
      <trkpt lat="45.43626" lon="4.55183">
        <ele>752</ele>
        <time>2012-07-22T08:14:45Z</time>
      </trkpt>
      <trkpt lat="45.43647" lon="4.55202">
        <ele>753</ele>
        <time>2012-07-22T08:14:52Z</time>
      </trkpt>
      <trkpt lat="45.43661" lon="4.55214">
        <ele>754</ele>
        <time>2012-07-22T08:14:56Z</time>
      </trkpt>
      <trkpt lat="45.43675" lon="4.55225">
        <ele>754</ele>
        <time>2012-07-22T08:15:00Z</time>
      </trkpt>
      <trkpt lat="45.4369" lon="4.55239">
        <ele>755</ele>
        <time>2012-07-22T08:15:05Z</time>
      </trkpt>
      <trkpt lat="45.43708" lon="4.55252">
        <ele>755</ele>
        <time>2012-07-22T08:15:11Z</time>
      </trkpt>
      <trkpt lat="45.43725" lon="4.55262">
        <ele>755</ele>
        <time>2012-07-22T08:15:16Z</time>
      </trkpt>
      <trkpt lat="45.43742" lon="4.55273">
        <ele>755</ele>
        <time>2012-07-22T08:15:21Z</time>
      </trkpt>
      <trkpt lat="45.43757" lon="4.55281">
        <ele>756</ele>
        <time>2012-07-22T08:15:27Z</time>
      </trkpt>
      <trkpt lat="45.43789" lon="4.55299">
        <ele>756</ele>
        <time>2012-07-22T08:15:38Z</time>
      </trkpt>
      <trkpt lat="45.43804" lon="4.55306">
        <ele>756</ele>
        <time>2012-07-22T08:15:41Z</time>
      </trkpt>
      <trkpt lat="45.43821" lon="4.55314">
        <ele>756</ele>
        <time>2012-07-22T08:15:45Z</time>
      </trkpt>
      <trkpt lat="45.43841" lon="4.55325">
        <ele>757</ele>
        <time>2012-07-22T08:15:51Z</time>
      </trkpt>
      <trkpt lat="45.43857" lon="4.55335">
        <ele>758</ele>
        <time>2012-07-22T08:15:56Z</time>
      </trkpt>
      <trkpt lat="45.43873" lon="4.55344">
        <ele>759</ele>
        <time>2012-07-22T08:16:01Z</time>
      </trkpt>
      <trkpt lat="45.43888" lon="4.55351">
        <ele>760</ele>
        <time>2012-07-22T08:16:05Z</time>
      </trkpt>
      <trkpt lat="45.43959" lon="4.55389">
        <ele>761</ele>
        <time>2012-07-22T08:16:27Z</time>
      </trkpt>
      <trkpt lat="45.43982" lon="4.55411">
        <ele>762</ele>
        <time>2012-07-22T08:16:34Z</time>
      </trkpt>
      <trkpt lat="45.44003" lon="4.55435">
        <ele>762</ele>
        <time>2012-07-22T08:16:43Z</time>
      </trkpt>
      <trkpt lat="45.44043" lon="4.55509">
        <ele>762</ele>
        <time>2012-07-22T08:16:53Z</time>
      </trkpt>
      <trkpt lat="45.44052" lon="4.55531">
        <ele>762</ele>
        <time>2012-07-22T08:16:55Z</time>
      </trkpt>
      <trkpt lat="45.44059" lon="4.55552">
        <ele>762</ele>
        <time>2012-07-22T08:16:57Z</time>
      </trkpt>
      <trkpt lat="45.44066" lon="4.55572">
        <ele>762</ele>
        <time>2012-07-22T08:16:59Z</time>
      </trkpt>
      <trkpt lat="45.44079" lon="4.55599">
        <ele>762</ele>
        <time>2012-07-22T08:17:02Z</time>
      </trkpt>
      <trkpt lat="45.44095" lon="4.55617">
        <ele>762</ele>
        <time>2012-07-22T08:17:05Z</time>
      </trkpt>
      <trkpt lat="45.44109" lon="4.55637">
        <ele>762</ele>
        <time>2012-07-22T08:17:08Z</time>
      </trkpt>
      <trkpt lat="45.44125" lon="4.55656">
        <ele>762</ele>
        <time>2012-07-22T08:17:11Z</time>
      </trkpt>
      <trkpt lat="45.44142" lon="4.55673">
        <ele>761</ele>
        <time>2012-07-22T08:17:15Z</time>
      </trkpt>
      <trkpt lat="45.44164" lon="4.55697">
        <ele>760</ele>
        <time>2012-07-22T08:17:18Z</time>
      </trkpt>
      <trkpt lat="45.44185" lon="4.55719">
        <ele>760</ele>
        <time>2012-07-22T08:17:22Z</time>
      </trkpt>
      <trkpt lat="45.4421" lon="4.55746">
        <ele>760</ele>
        <time>2012-07-22T08:17:27Z</time>
      </trkpt>
      <trkpt lat="45.44225" lon="4.55765">
        <ele>759</ele>
        <time>2012-07-22T08:17:30Z</time>
      </trkpt>
      <trkpt lat="45.44268" lon="4.55844">
        <ele>759</ele>
        <time>2012-07-22T08:17:40Z</time>
      </trkpt>
      <trkpt lat="45.44279" lon="4.55863">
        <ele>758</ele>
        <time>2012-07-22T08:17:42Z</time>
      </trkpt>
      <trkpt lat="45.44297" lon="4.55888">
        <ele>757</ele>
        <time>2012-07-22T08:17:45Z</time>
      </trkpt>
      <trkpt lat="45.4432" lon="4.55909">
        <ele>756</ele>
        <time>2012-07-22T08:17:48Z</time>
      </trkpt>
      <trkpt lat="45.44389" lon="4.55965">
        <ele>754</ele>
        <time>2012-07-22T08:17:56Z</time>
      </trkpt>
      <trkpt lat="45.44407" lon="4.55975">
        <ele>753</ele>
        <time>2012-07-22T08:17:58Z</time>
      </trkpt>
      <trkpt lat="45.44417" lon="4.55979">
        <ele>753</ele>
        <time>2012-07-22T08:17:59Z</time>
      </trkpt>
      <trkpt lat="45.44444" lon="4.55993">
        <ele>752</ele>
        <time>2012-07-22T08:18:02Z</time>
      </trkpt>
      <trkpt lat="45.44462" lon="4.56002">
        <ele>750</ele>
        <time>2012-07-22T08:18:04Z</time>
      </trkpt>
      <trkpt lat="45.44479" lon="4.56008">
        <ele>748</ele>
        <time>2012-07-22T08:18:06Z</time>
      </trkpt>
      <trkpt lat="45.44496" lon="4.56013">
        <ele>746</ele>
        <time>2012-07-22T08:18:08Z</time>
      </trkpt>
      <trkpt lat="45.44517" lon="4.56017">
        <ele>743</ele>
        <time>2012-07-22T08:18:11Z</time>
      </trkpt>
      <trkpt lat="45.44535" lon="4.56021">
        <ele>740</ele>
        <time>2012-07-22T08:18:14Z</time>
      </trkpt>
      <trkpt lat="45.44546" lon="4.56023">
        <ele>738</ele>
        <time>2012-07-22T08:18:16Z</time>
      </trkpt>
      <trkpt lat="45.44557" lon="4.56025">
        <ele>735</ele>
        <time>2012-07-22T08:18:18Z</time>
      </trkpt>
      <trkpt lat="45.44566" lon="4.56027">
        <ele>733</ele>
        <time>2012-07-22T08:18:20Z</time>
      </trkpt>
      <trkpt lat="45.44581" lon="4.56031">
        <ele>731</ele>
        <time>2012-07-22T08:18:23Z</time>
      </trkpt>
      <trkpt lat="45.44601" lon="4.56039">
        <ele>728</ele>
        <time>2012-07-22T08:18:27Z</time>
      </trkpt>
      <trkpt lat="45.44623" lon="4.56049">
        <ele>727</ele>
        <time>2012-07-22T08:18:32Z</time>
      </trkpt>
      <trkpt lat="45.44642" lon="4.56047">
        <ele>724</ele>
        <time>2012-07-22T08:18:37Z</time>
      </trkpt>
      <trkpt lat="45.44659" lon="4.56051">
        <ele>722</ele>
        <time>2012-07-22T08:18:41Z</time>
      </trkpt>
      <trkpt lat="45.44681" lon="4.56062">
        <ele>721</ele>
        <time>2012-07-22T08:18:46Z</time>
      </trkpt>
      <trkpt lat="45.44698" lon="4.56072">
        <ele>719</ele>
        <time>2012-07-22T08:18:50Z</time>
      </trkpt>
      <trkpt lat="45.44718" lon="4.56085">
        <ele>719</ele>
        <time>2012-07-22T08:18:55Z</time>
      </trkpt>
      <trkpt lat="45.44734" lon="4.56096">
        <ele>718</ele>
        <time>2012-07-22T08:18:59Z</time>
      </trkpt>
      <trkpt lat="45.44751" lon="4.56107">
        <ele>717</ele>
        <time>2012-07-22T08:19:03Z</time>
      </trkpt>
      <trkpt lat="45.44767" lon="4.56116">
        <ele>716</ele>
        <time>2012-07-22T08:19:07Z</time>
      </trkpt>
      <trkpt lat="45.44784" lon="4.56122">
        <ele>715</ele>
        <time>2012-07-22T08:19:11Z</time>
      </trkpt>
      <trkpt lat="45.44805" lon="4.56129">
        <ele>715</ele>
        <time>2012-07-22T08:19:16Z</time>
      </trkpt>
      <trkpt lat="45.44821" lon="4.5614">
        <ele>714</ele>
        <time>2012-07-22T08:19:21Z</time>
      </trkpt>
      <trkpt lat="45.44838" lon="4.56151">
        <ele>714</ele>
        <time>2012-07-22T08:19:24Z</time>
      </trkpt>
      <trkpt lat="45.44857" lon="4.56161">
        <ele>713</ele>
        <time>2012-07-22T08:19:27Z</time>
      </trkpt>
      <trkpt lat="45.45013" lon="4.56248">
        <ele>712</ele>
        <time>2012-07-22T08:19:50Z</time>
      </trkpt>
      <trkpt lat="45.45028" lon="4.56257">
        <ele>711</ele>
        <time>2012-07-22T08:19:52Z</time>
      </trkpt>
      <trkpt lat="45.45106" lon="4.56317">
        <ele>710</ele>
        <time>2012-07-22T08:20:03Z</time>
      </trkpt>
      <trkpt lat="45.45177" lon="4.56402">
        <ele>706</ele>
        <time>2012-07-22T08:20:16Z</time>
      </trkpt>
      <trkpt lat="45.45193" lon="4.56414">
        <ele>703</ele>
        <time>2012-07-22T08:20:19Z</time>
      </trkpt>
      <trkpt lat="45.45214" lon="4.56422">
        <ele>702</ele>
        <time>2012-07-22T08:20:22Z</time>
      </trkpt>
      <trkpt lat="45.45258" lon="4.56424">
        <ele>700</ele>
        <time>2012-07-22T08:20:28Z</time>
      </trkpt>
      <trkpt lat="45.45276" lon="4.56423">
        <ele>698</ele>
        <time>2012-07-22T08:20:30Z</time>
      </trkpt>
      <trkpt lat="45.45308" lon="4.56423">
        <ele>696</ele>
        <time>2012-07-22T08:20:34Z</time>
      </trkpt>
      <trkpt lat="45.45341" lon="4.56426">
        <ele>695</ele>
        <time>2012-07-22T08:20:39Z</time>
      </trkpt>
      <trkpt lat="45.45363" lon="4.56434">
        <ele>691</ele>
        <time>2012-07-22T08:20:43Z</time>
      </trkpt>
      <trkpt lat="45.4538" lon="4.56441">
        <ele>688</ele>
        <time>2012-07-22T08:20:46Z</time>
      </trkpt>
      <trkpt lat="45.45397" lon="4.56449">
        <ele>687</ele>
        <time>2012-07-22T08:20:49Z</time>
      </trkpt>
      <trkpt lat="45.45471" lon="4.56487">
        <ele>680</ele>
        <time>2012-07-22T08:21:01Z</time>
      </trkpt>
      <trkpt lat="45.4548" lon="4.56492">
        <ele>678</ele>
        <time>2012-07-22T08:21:02Z</time>
      </trkpt>
      <trkpt lat="45.45489" lon="4.56498">
        <ele>677</ele>
        <time>2012-07-22T08:21:03Z</time>
      </trkpt>
      <trkpt lat="45.45498" lon="4.56504">
        <ele>675</ele>
        <time>2012-07-22T08:21:04Z</time>
      </trkpt>
      <trkpt lat="45.45508" lon="4.5651">
        <ele>673</ele>
        <time>2012-07-22T08:21:05Z</time>
      </trkpt>
      <trkpt lat="45.45517" lon="4.56515">
        <ele>671</ele>
        <time>2012-07-22T08:21:06Z</time>
      </trkpt>
      <trkpt lat="45.45527" lon="4.5652">
        <ele>670</ele>
        <time>2012-07-22T08:21:07Z</time>
      </trkpt>
      <trkpt lat="45.45554" lon="4.56532">
        <ele>668</ele>
        <time>2012-07-22T08:21:10Z</time>
      </trkpt>
      <trkpt lat="45.45573" lon="4.56559">
        <ele>665</ele>
        <time>2012-07-22T08:21:15Z</time>
      </trkpt>
      <trkpt lat="45.45585" lon="4.56575">
        <ele>657</ele>
        <time>2012-07-22T08:21:20Z</time>
      </trkpt>
      <trkpt lat="45.456" lon="4.56588">
        <ele>651</ele>
        <time>2012-07-22T08:21:25Z</time>
      </trkpt>
      <trkpt lat="45.45613" lon="4.56605">
        <ele>646</ele>
        <time>2012-07-22T08:21:30Z</time>
      </trkpt>
      <trkpt lat="45.45626" lon="4.56621">
        <ele>641</ele>
        <time>2012-07-22T08:21:35Z</time>
      </trkpt>
      <trkpt lat="45.45641" lon="4.56637">
        <ele>636</ele>
        <time>2012-07-22T08:21:40Z</time>
      </trkpt>
      <trkpt lat="45.45655" lon="4.56651">
        <ele>633</ele>
        <time>2012-07-22T08:21:45Z</time>
      </trkpt>
      <trkpt lat="45.45668" lon="4.56664">
        <ele>630</ele>
        <time>2012-07-22T08:21:50Z</time>
      </trkpt>
      <trkpt lat="45.45675" lon="4.56673">
        <ele>628</ele>
        <time>2012-07-22T08:21:53Z</time>
      </trkpt>
      <trkpt lat="45.45682" lon="4.56682">
        <ele>626</ele>
        <time>2012-07-22T08:21:56Z</time>
      </trkpt>
      <trkpt lat="45.45694" lon="4.56697">
        <ele>624</ele>
        <time>2012-07-22T08:22:00Z</time>
      </trkpt>
      <trkpt lat="45.4571" lon="4.56715">
        <ele>623</ele>
        <time>2012-07-22T08:22:04Z</time>
      </trkpt>
      <trkpt lat="45.45726" lon="4.56729">
        <ele>621</ele>
        <time>2012-07-22T08:22:07Z</time>
      </trkpt>
      <trkpt lat="45.45734" lon="4.56742">
        <ele>621</ele>
        <time>2012-07-22T08:22:09Z</time>
      </trkpt>
      <trkpt lat="45.45746" lon="4.56759">
        <ele>619</ele>
        <time>2012-07-22T08:22:12Z</time>
      </trkpt>
      <trkpt lat="45.45759" lon="4.56774">
        <ele>619</ele>
        <time>2012-07-22T08:22:15Z</time>
      </trkpt>
      <trkpt lat="45.45774" lon="4.56788">
        <ele>618</ele>
        <time>2012-07-22T08:22:19Z</time>
      </trkpt>
      <trkpt lat="45.4579" lon="4.56803">
        <ele>617</ele>
        <time>2012-07-22T08:22:21Z</time>
      </trkpt>
      <trkpt lat="45.45808" lon="4.56819">
        <ele>616</ele>
        <time>2012-07-22T08:22:24Z</time>
      </trkpt>
      <trkpt lat="45.45826" lon="4.56836">
        <ele>616</ele>
        <time>2012-07-22T08:22:27Z</time>
      </trkpt>
      <trkpt lat="45.45844" lon="4.56851">
        <ele>615</ele>
        <time>2012-07-22T08:22:30Z</time>
      </trkpt>
      <trkpt lat="45.45866" lon="4.56868">
        <ele>614</ele>
        <time>2012-07-22T08:22:34Z</time>
      </trkpt>
      <trkpt lat="45.45881" lon="4.5688">
        <ele>614</ele>
        <time>2012-07-22T08:22:37Z</time>
      </trkpt>
      <trkpt lat="45.45895" lon="4.56891">
        <ele>613</ele>
        <time>2012-07-22T08:22:40Z</time>
      </trkpt>
      <trkpt lat="45.45909" lon="4.569">
        <ele>613</ele>
        <time>2012-07-22T08:22:43Z</time>
      </trkpt>
      <trkpt lat="45.45928" lon="4.56906">
        <ele>612</ele>
        <time>2012-07-22T08:22:47Z</time>
      </trkpt>
      <trkpt lat="45.45948" lon="4.56913">
        <ele>611</ele>
        <time>2012-07-22T08:22:51Z</time>
      </trkpt>
      <trkpt lat="45.45964" lon="4.56917">
        <ele>611</ele>
        <time>2012-07-22T08:22:54Z</time>
      </trkpt>
      <trkpt lat="45.4598" lon="4.56918">
        <ele>611</ele>
        <time>2012-07-22T08:22:57Z</time>
      </trkpt>
      <trkpt lat="45.45995" lon="4.56916">
        <ele>611</ele>
        <time>2012-07-22T08:23:00Z</time>
      </trkpt>
      <trkpt lat="45.46015" lon="4.56909">
        <ele>610</ele>
        <time>2012-07-22T08:23:04Z</time>
      </trkpt>
      <trkpt lat="45.46046" lon="4.56897">
        <ele>610</ele>
        <time>2012-07-22T08:23:11Z</time>
      </trkpt>
      <trkpt lat="45.46064" lon="4.56892">
        <ele>610</ele>
        <time>2012-07-22T08:23:15Z</time>
      </trkpt>
      <trkpt lat="45.46072" lon="4.56888">
        <ele>609</ele>
        <time>2012-07-22T08:23:17Z</time>
      </trkpt>
      <trkpt lat="45.46085" lon="4.56883">
        <ele>609</ele>
        <time>2012-07-22T08:23:20Z</time>
      </trkpt>
      <trkpt lat="45.46096" lon="4.56881">
        <ele>608</ele>
        <time>2012-07-22T08:23:23Z</time>
      </trkpt>
      <trkpt lat="45.46113" lon="4.5688">
        <ele>608</ele>
        <time>2012-07-22T08:23:28Z</time>
      </trkpt>
      <trkpt lat="45.46131" lon="4.56883">
        <ele>607</ele>
        <time>2012-07-22T08:23:34Z</time>
      </trkpt>
      <trkpt lat="45.46149" lon="4.56891">
        <ele>607</ele>
        <time>2012-07-22T08:23:39Z</time>
      </trkpt>
      <trkpt lat="45.46165" lon="4.56901">
        <ele>607</ele>
        <time>2012-07-22T08:23:43Z</time>
      </trkpt>
      <trkpt lat="45.46181" lon="4.56906">
        <ele>607</ele>
        <time>2012-07-22T08:23:47Z</time>
      </trkpt>
      <trkpt lat="45.46197" lon="4.569">
        <ele>607</ele>
        <time>2012-07-22T08:23:51Z</time>
      </trkpt>
      <trkpt lat="45.4621" lon="4.56886">
        <ele>607</ele>
        <time>2012-07-22T08:23:55Z</time>
      </trkpt>
      <trkpt lat="45.46227" lon="4.56871">
        <ele>607</ele>
        <time>2012-07-22T08:23:59Z</time>
      </trkpt>
      <trkpt lat="45.46308" lon="4.56824">
        <ele>607</ele>
        <time>2012-07-22T08:24:12Z</time>
      </trkpt>
      <trkpt lat="45.46321" lon="4.56812">
        <ele>607</ele>
        <time>2012-07-22T08:24:14Z</time>
      </trkpt>
      <trkpt lat="45.4634" lon="4.56796">
        <ele>607</ele>
        <time>2012-07-22T08:24:17Z</time>
      </trkpt>
      <trkpt lat="45.46358" lon="4.56776">
        <ele>606</ele>
        <time>2012-07-22T08:24:21Z</time>
      </trkpt>
      <trkpt lat="45.46368" lon="4.56756">
        <ele>605</ele>
        <time>2012-07-22T08:24:25Z</time>
      </trkpt>
      <trkpt lat="45.46389" lon="4.56704">
        <ele>605</ele>
        <time>2012-07-22T08:24:35Z</time>
      </trkpt>
      <trkpt lat="45.46488" lon="4.56485">
        <ele>602.3</ele>
        <time>2012-07-22T08:25:01Z</time>
      </trkpt>
      <trkpt lat="45.46515" lon="4.5623">
        <ele>579</ele>
        <time>2012-07-22T08:25:41Z</time>
      </trkpt>
      <trkpt lat="45.4652" lon="4.56205">
        <ele>575</ele>
        <time>2012-07-22T08:25:46Z</time>
      </trkpt>
      <trkpt lat="45.46527" lon="4.56186">
        <ele>562</ele>
        <time>2012-07-22T08:26:16Z</time>
      </trkpt>
      <trkpt lat="45.46532" lon="4.56175">
        <ele>559</ele>
        <time>2012-07-22T08:26:24Z</time>
      </trkpt>
      <trkpt lat="45.4654" lon="4.56151">
        <ele>554</ele>
        <time>2012-07-22T08:26:31Z</time>
      </trkpt>
      <trkpt lat="45.46523" lon="4.56141">
        <ele>552</ele>
        <time>2012-07-22T08:26:38Z</time>
      </trkpt>
      <trkpt lat="45.46509" lon="4.56155">
        <ele>551</ele>
        <time>2012-07-22T08:26:41Z</time>
      </trkpt>
      <trkpt lat="45.46495" lon="4.5617">
        <ele>549</ele>
        <time>2012-07-22T08:26:44Z</time>
      </trkpt>
      <trkpt lat="45.46482" lon="4.56185">
        <ele>547</ele>
        <time>2012-07-22T08:26:47Z</time>
      </trkpt>
      <trkpt lat="45.46467" lon="4.56203">
        <ele>545</ele>
        <time>2012-07-22T08:26:51Z</time>
      </trkpt>
      <trkpt lat="45.46452" lon="4.56221">
        <ele>544</ele>
        <time>2012-07-22T08:26:55Z</time>
      </trkpt>
      <trkpt lat="45.46436" lon="4.56237">
        <ele>541</ele>
        <time>2012-07-22T08:26:59Z</time>
      </trkpt>
      <trkpt lat="45.4641" lon="4.56263">
        <ele>540</ele>
        <time>2012-07-22T08:27:05Z</time>
      </trkpt>
      <trkpt lat="45.46383" lon="4.56231">
        <ele>538</ele>
        <time>2012-07-22T08:27:21Z</time>
      </trkpt>
      <trkpt lat="45.46403" lon="4.56169">
        <ele>536</ele>
        <time>2012-07-22T08:27:28Z</time>
      </trkpt>
      <trkpt lat="45.46413" lon="4.56145">
        <ele>533</ele>
        <time>2012-07-22T08:27:31Z</time>
      </trkpt>
      <trkpt lat="45.46419" lon="4.56121">
        <ele>531</ele>
        <time>2012-07-22T08:27:34Z</time>
      </trkpt>
      <trkpt lat="45.46426" lon="4.561">
        <ele>529</ele>
        <time>2012-07-22T08:27:37Z</time>
      </trkpt>
      <trkpt lat="45.46435" lon="4.56065">
        <ele>527</ele>
        <time>2012-07-22T08:27:42Z</time>
      </trkpt>
      <trkpt lat="45.46443" lon="4.56044">
        <ele>526</ele>
        <time>2012-07-22T08:27:45Z</time>
      </trkpt>
      <trkpt lat="45.46451" lon="4.56023">
        <ele>524</ele>
        <time>2012-07-22T08:27:48Z</time>
      </trkpt>
      <trkpt lat="45.46459" lon="4.56001">
        <ele>522</ele>
        <time>2012-07-22T08:27:51Z</time>
      </trkpt>
      <trkpt lat="45.46471" lon="4.55969">
        <ele>521</ele>
        <time>2012-07-22T08:27:55Z</time>
      </trkpt>
      <trkpt lat="45.46481" lon="4.55944">
        <ele>519</ele>
        <time>2012-07-22T08:27:58Z</time>
      </trkpt>
      <trkpt lat="45.46488" lon="4.55923">
        <ele>518</ele>
        <time>2012-07-22T08:28:00Z</time>
      </trkpt>
      <trkpt lat="45.46508" lon="4.55862">
        <ele>517</ele>
        <time>2012-07-22T08:28:05Z</time>
      </trkpt>
      <trkpt lat="45.46521" lon="4.55825">
        <ele>516</ele>
        <time>2012-07-22T08:28:08Z</time>
      </trkpt>
      <trkpt lat="45.4653" lon="4.55801">
        <ele>515</ele>
        <time>2012-07-22T08:28:10Z</time>
      </trkpt>
      <trkpt lat="45.46538" lon="4.55778">
        <ele>514</ele>
        <time>2012-07-22T08:28:12Z</time>
      </trkpt>
      <trkpt lat="45.4656" lon="4.5572">
        <ele>513</ele>
        <time>2012-07-22T08:28:17Z</time>
      </trkpt>
      <trkpt lat="45.46595" lon="4.55602">
        <ele>511</ele>
        <time>2012-07-22T08:28:27Z</time>
      </trkpt>
      <trkpt lat="45.46606" lon="4.55445">
        <ele>508</ele>
        <time>2012-07-22T08:28:45Z</time>
      </trkpt>
      <trkpt lat="45.46604" lon="4.5539">
        <ele>506</ele>
        <time>2012-07-22T08:28:51Z</time>
      </trkpt>
      <trkpt lat="45.46602" lon="4.55363">
        <ele>502</ele>
        <time>2012-07-22T08:28:55Z</time>
      </trkpt>
      <trkpt lat="45.46601" lon="4.55338">
        <ele>498</ele>
        <time>2012-07-22T08:28:59Z</time>
      </trkpt>
      <trkpt lat="45.46618" lon="4.55322">
        <ele>495</ele>
        <time>2012-07-22T08:29:12Z</time>
      </trkpt>
      <trkpt lat="45.4663" lon="4.55339">
        <ele>488</ele>
        <time>2012-07-22T08:29:18Z</time>
      </trkpt>
      <trkpt lat="45.46641" lon="4.55356">
        <ele>483</ele>
        <time>2012-07-22T08:29:24Z</time>
      </trkpt>
      <trkpt lat="45.46653" lon="4.55372">
        <ele>480</ele>
        <time>2012-07-22T08:29:30Z</time>
      </trkpt>
      <trkpt lat="45.46666" lon="4.55387">
        <ele>477</ele>
        <time>2012-07-22T08:29:36Z</time>
      </trkpt>
      <trkpt lat="45.46679" lon="4.55403">
        <ele>474</ele>
        <time>2012-07-22T08:29:42Z</time>
      </trkpt>
      <trkpt lat="45.46691" lon="4.5542">
        <ele>471</ele>
        <time>2012-07-22T08:29:48Z</time>
      </trkpt>
      <trkpt lat="45.46703" lon="4.55436">
        <ele>468</ele>
        <time>2012-07-22T08:29:54Z</time>
      </trkpt>
      <trkpt lat="45.46715" lon="4.55454">
        <ele>466</ele>
        <time>2012-07-22T08:30:01Z</time>
      </trkpt>
      <trkpt lat="45.46722" lon="4.55465">
        <ele>465</ele>
        <time>2012-07-22T08:30:04Z</time>
      </trkpt>
      <trkpt lat="45.46732" lon="4.55483">
        <ele>463</ele>
        <time>2012-07-22T08:30:10Z</time>
      </trkpt>
      <trkpt lat="45.46743" lon="4.55504">
        <ele>462</ele>
        <time>2012-07-22T08:30:16Z</time>
      </trkpt>
      <trkpt lat="45.46752" lon="4.55522">
        <ele>461</ele>
        <time>2012-07-22T08:30:20Z</time>
      </trkpt>
      <trkpt lat="45.46763" lon="4.55546">
        <ele>460</ele>
        <time>2012-07-22T08:30:24Z</time>
      </trkpt>
      <trkpt lat="45.46773" lon="4.55571">
        <ele>460</ele>
        <time>2012-07-22T08:30:29Z</time>
      </trkpt>
      <trkpt lat="45.46781" lon="4.55593">
        <ele>459</ele>
        <time>2012-07-22T08:30:31Z</time>
      </trkpt>
      <trkpt lat="45.46784" lon="4.55616">
        <ele>458</ele>
        <time>2012-07-22T08:30:34Z</time>
      </trkpt>
      <trkpt lat="45.46787" lon="4.55641">
        <ele>458</ele>
        <time>2012-07-22T08:30:37Z</time>
      </trkpt>
      <trkpt lat="45.4679" lon="4.55665">
        <ele>457</ele>
        <time>2012-07-22T08:30:40Z</time>
      </trkpt>
      <trkpt lat="45.46792" lon="4.55689">
        <ele>457</ele>
        <time>2012-07-22T08:30:43Z</time>
      </trkpt>
      <trkpt lat="45.46793" lon="4.55711">
        <ele>456</ele>
        <time>2012-07-22T08:30:46Z</time>
      </trkpt>
      <trkpt lat="45.46797" lon="4.55732">
        <ele>456</ele>
        <time>2012-07-22T08:30:49Z</time>
      </trkpt>
      <trkpt lat="45.46804" lon="4.55753">
        <ele>456</ele>
        <time>2012-07-22T08:30:52Z</time>
      </trkpt>
      <trkpt lat="45.46811" lon="4.55775">
        <ele>455</ele>
        <time>2012-07-22T08:30:55Z</time>
      </trkpt>
      <trkpt lat="45.46818" lon="4.55797">
        <ele>454</ele>
        <time>2012-07-22T08:30:58Z</time>
      </trkpt>
      <trkpt lat="45.46825" lon="4.5582">
        <ele>454</ele>
        <time>2012-07-22T08:31:01Z</time>
      </trkpt>
      <trkpt lat="45.46837" lon="4.55855">
        <ele>453</ele>
        <time>2012-07-22T08:31:05Z</time>
      </trkpt>
      <trkpt lat="45.46847" lon="4.55882">
        <ele>453</ele>
        <time>2012-07-22T08:31:08Z</time>
      </trkpt>
      <trkpt lat="45.46858" lon="4.55907">
        <ele>452</ele>
        <time>2012-07-22T08:31:11Z</time>
      </trkpt>
      <trkpt lat="45.46868" lon="4.55932">
        <ele>452</ele>
        <time>2012-07-22T08:31:14Z</time>
      </trkpt>
      <trkpt lat="45.46879" lon="4.55958">
        <ele>451</ele>
        <time>2012-07-22T08:31:17Z</time>
      </trkpt>
      <trkpt lat="45.46889" lon="4.55984">
        <ele>451</ele>
        <time>2012-07-22T08:31:20Z</time>
      </trkpt>
      <trkpt lat="45.469" lon="4.56012">
        <ele>450</ele>
        <time>2012-07-22T08:31:23Z</time>
      </trkpt>
      <trkpt lat="45.46908" lon="4.56033">
        <ele>450</ele>
        <time>2012-07-22T08:31:25Z</time>
      </trkpt>
      <trkpt lat="45.46918" lon="4.56055">
        <ele>450</ele>
        <time>2012-07-22T08:31:27Z</time>
      </trkpt>
      <trkpt lat="45.46948" lon="4.56081">
        <ele>450</ele>
        <time>2012-07-22T08:31:31Z</time>
      </trkpt>
      <trkpt lat="45.46964" lon="4.56087">
        <ele>449</ele>
        <time>2012-07-22T08:31:33Z</time>
      </trkpt>
      <trkpt lat="45.4698" lon="4.56088">
        <ele>449</ele>
        <time>2012-07-22T08:31:35Z</time>
      </trkpt>
      <trkpt lat="45.47001" lon="4.56084">
        <ele>449</ele>
        <time>2012-07-22T08:31:38Z</time>
      </trkpt>
      <trkpt lat="45.4702" lon="4.56083">
        <ele>448</ele>
        <time>2012-07-22T08:31:41Z</time>
      </trkpt>
      <trkpt lat="45.47031" lon="4.56085">
        <ele>448</ele>
        <time>2012-07-22T08:31:43Z</time>
      </trkpt>
      <trkpt lat="45.47047" lon="4.56085">
        <ele>448</ele>
        <time>2012-07-22T08:31:46Z</time>
      </trkpt>
      <trkpt lat="45.47067" lon="4.56087">
        <ele>448</ele>
        <time>2012-07-22T08:31:50Z</time>
      </trkpt>
      <trkpt lat="45.47076" lon="4.5609">
        <ele>448</ele>
        <time>2012-07-22T08:31:52Z</time>
      </trkpt>
      <trkpt lat="45.47094" lon="4.56096">
        <ele>448</ele>
        <time>2012-07-22T08:31:56Z</time>
      </trkpt>
      <trkpt lat="45.47113" lon="4.56101">
        <ele>448</ele>
        <time>2012-07-22T08:32:00Z</time>
      </trkpt>
      <trkpt lat="45.47122" lon="4.56105">
        <ele>447</ele>
        <time>2012-07-22T08:32:02Z</time>
      </trkpt>
      <trkpt lat="45.47141" lon="4.56117">
        <ele>447</ele>
        <time>2012-07-22T08:32:06Z</time>
      </trkpt>
      <trkpt lat="45.47152" lon="4.56128">
        <ele>447</ele>
        <time>2012-07-22T08:32:08Z</time>
      </trkpt>
      <trkpt lat="45.47165" lon="4.56142">
        <ele>447</ele>
        <time>2012-07-22T08:32:10Z</time>
      </trkpt>
      <trkpt lat="45.47178" lon="4.56157">
        <ele>447</ele>
        <time>2012-07-22T08:32:12Z</time>
      </trkpt>
      <trkpt lat="45.47192" lon="4.56173">
        <ele>446</ele>
        <time>2012-07-22T08:32:14Z</time>
      </trkpt>
      <trkpt lat="45.47199" lon="4.56183">
        <ele>446</ele>
        <time>2012-07-22T08:32:15Z</time>
      </trkpt>
      <trkpt lat="45.47206" lon="4.56193">
        <ele>446</ele>
        <time>2012-07-22T08:32:16Z</time>
      </trkpt>
      <trkpt lat="45.47212" lon="4.56204">
        <ele>446</ele>
        <time>2012-07-22T08:32:17Z</time>
      </trkpt>
      <trkpt lat="45.47218" lon="4.56215">
        <ele>446</ele>
        <time>2012-07-22T08:32:18Z</time>
      </trkpt>
      <trkpt lat="45.47223" lon="4.56228">
        <ele>446</ele>
        <time>2012-07-22T08:32:19Z</time>
      </trkpt>
      <trkpt lat="45.47238" lon="4.56266">
        <ele>446</ele>
        <time>2012-07-22T08:32:22Z</time>
      </trkpt>
      <trkpt lat="45.47244" lon="4.56278">
        <ele>446</ele>
        <time>2012-07-22T08:32:23Z</time>
      </trkpt>
      <trkpt lat="45.47248" lon="4.5629">
        <ele>446</ele>
        <time>2012-07-22T08:32:24Z</time>
      </trkpt>
      <trkpt lat="45.47258" lon="4.56313">
        <ele>445</ele>
        <time>2012-07-22T08:32:27Z</time>
      </trkpt>
      <trkpt lat="45.47268" lon="4.56318">
        <ele>444</ele>
        <time>2012-07-22T08:32:33Z</time>
      </trkpt>
      <trkpt lat="45.47274" lon="4.56296">
        <ele>443</ele>
        <time>2012-07-22T08:32:38Z</time>
      </trkpt>
      <trkpt lat="45.47276" lon="4.56272">
        <ele>443</ele>
        <time>2012-07-22T08:32:42Z</time>
      </trkpt>
      <trkpt lat="45.4728" lon="4.56248">
        <ele>442</ele>
        <time>2012-07-22T08:32:46Z</time>
      </trkpt>
      <trkpt lat="45.47291" lon="4.56228">
        <ele>441</ele>
        <time>2012-07-22T08:32:50Z</time>
      </trkpt>
      <trkpt lat="45.47328" lon="4.56191">
        <ele>457.9</ele>
        <time>2012-07-22T08:32:58Z</time>
      </trkpt>
      <trkpt lat="45.47512" lon="4.55994">
        <ele>434</ele>
        <time>2012-07-22T08:33:28Z</time>
      </trkpt>
      <trkpt lat="45.47526" lon="4.55977">
        <ele>433</ele>
        <time>2012-07-22T08:33:30Z</time>
      </trkpt>
      <trkpt lat="45.47533" lon="4.55968">
        <ele>432</ele>
        <time>2012-07-22T08:33:31Z</time>
      </trkpt>
      <trkpt lat="45.4754" lon="4.55959">
        <ele>432</ele>
        <time>2012-07-22T08:33:32Z</time>
      </trkpt>
      <trkpt lat="45.47547" lon="4.55949">
        <ele>431</ele>
        <time>2012-07-22T08:33:33Z</time>
      </trkpt>
      <trkpt lat="45.47553" lon="4.5594">
        <ele>431</ele>
        <time>2012-07-22T08:33:34Z</time>
      </trkpt>
      <trkpt lat="45.4756" lon="4.5593">
        <ele>431</ele>
        <time>2012-07-22T08:33:35Z</time>
      </trkpt>
      <trkpt lat="45.47578" lon="4.55902">
        <ele>430</ele>
        <time>2012-07-22T08:33:38Z</time>
      </trkpt>
      <trkpt lat="45.4759" lon="4.55885">
        <ele>429</ele>
        <time>2012-07-22T08:33:40Z</time>
      </trkpt>
      <trkpt lat="45.47602" lon="4.55871">
        <ele>428</ele>
        <time>2012-07-22T08:33:42Z</time>
      </trkpt>
      <trkpt lat="45.47615" lon="4.5585">
        <ele>427</ele>
        <time>2012-07-22T08:33:45Z</time>
      </trkpt>
      <trkpt lat="45.47628" lon="4.55837">
        <ele>424</ele>
        <time>2012-07-22T08:33:49Z</time>
      </trkpt>
      <trkpt lat="45.47638" lon="4.55858">
        <ele>422</ele>
        <time>2012-07-22T08:33:53Z</time>
      </trkpt>
      <trkpt lat="45.47653" lon="4.5592">
        <ele>422.3</ele>
        <time>2012-07-22T08:33:59Z</time>
      </trkpt>
      <trkpt lat="45.47721" lon="4.56239">
        <ele>411</ele>
        <time>2012-07-22T08:34:30Z</time>
      </trkpt>
      <trkpt lat="45.47725" lon="4.56251">
        <ele>409</ele>
        <time>2012-07-22T08:34:31Z</time>
      </trkpt>
      <trkpt lat="45.47743" lon="4.56283">
        <ele>408</ele>
        <time>2012-07-22T08:34:35Z</time>
      </trkpt>
      <trkpt lat="45.47751" lon="4.56305">
        <ele>402</ele>
        <time>2012-07-22T08:34:42Z</time>
      </trkpt>
      <trkpt lat="45.47758" lon="4.56327">
        <ele>397</ele>
        <time>2012-07-22T08:34:49Z</time>
      </trkpt>
      <trkpt lat="45.47766" lon="4.56349">
        <ele>391</ele>
        <time>2012-07-22T08:34:57Z</time>
      </trkpt>
      <trkpt lat="45.47775" lon="4.56371">
        <ele>388</ele>
        <time>2012-07-22T08:35:03Z</time>
      </trkpt>
      <trkpt lat="45.4779" lon="4.56402">
        <ele>385</ele>
        <time>2012-07-22T08:35:12Z</time>
      </trkpt>
      <trkpt lat="45.47801" lon="4.56422">
        <ele>382</ele>
        <time>2012-07-22T08:35:18Z</time>
      </trkpt>
      <trkpt lat="45.4781" lon="4.56442">
        <ele>379</ele>
        <time>2012-07-22T08:35:24Z</time>
      </trkpt>
      <trkpt lat="45.47815" lon="4.56452">
        <ele>377</ele>
        <time>2012-07-22T08:35:27Z</time>
      </trkpt>
      <trkpt lat="45.4782" lon="4.56463">
        <ele>375</ele>
        <time>2012-07-22T08:35:30Z</time>
      </trkpt>
      <trkpt lat="45.47825" lon="4.56477">
        <ele>373</ele>
        <time>2012-07-22T08:35:34Z</time>
      </trkpt>
      <trkpt lat="45.47833" lon="4.565">
        <ele>372</ele>
        <time>2012-07-22T08:35:40Z</time>
      </trkpt>
      <trkpt lat="45.47841" lon="4.56522">
        <ele>371</ele>
        <time>2012-07-22T08:35:46Z</time>
      </trkpt>
      <trkpt lat="45.47853" lon="4.56541">
        <ele>370</ele>
        <time>2012-07-22T08:35:52Z</time>
      </trkpt>
      <trkpt lat="45.47866" lon="4.56554">
        <ele>370</ele>
        <time>2012-07-22T08:35:57Z</time>
      </trkpt>
      <trkpt lat="45.47874" lon="4.56558">
        <ele>370</ele>
        <time>2012-07-22T08:35:59Z</time>
      </trkpt>
      <trkpt lat="45.47893" lon="4.56566">
        <ele>370</ele>
        <time>2012-07-22T08:36:03Z</time>
      </trkpt>
      <trkpt lat="45.47902" lon="4.5657">
        <ele>370</ele>
        <time>2012-07-22T08:36:05Z</time>
      </trkpt>
      <trkpt lat="45.4791" lon="4.56574">
        <ele>370</ele>
        <time>2012-07-22T08:36:07Z</time>
      </trkpt>
      <trkpt lat="45.47926" lon="4.56584">
        <ele>370</ele>
        <time>2012-07-22T08:36:11Z</time>
      </trkpt>
      <trkpt lat="45.47954" lon="4.56605">
        <ele>370</ele>
        <time>2012-07-22T08:36:19Z</time>
      </trkpt>
      <trkpt lat="45.47968" lon="4.5662">
        <ele>369</ele>
        <time>2012-07-22T08:36:24Z</time>
      </trkpt>
      <trkpt lat="45.47981" lon="4.56635">
        <ele>369</ele>
        <time>2012-07-22T08:36:30Z</time>
      </trkpt>
      <trkpt lat="45.47994" lon="4.56651">
        <ele>368</ele>
        <time>2012-07-22T08:36:35Z</time>
      </trkpt>
      <trkpt lat="45.48003" lon="4.56663">
        <ele>367</ele>
        <time>2012-07-22T08:36:38Z</time>
      </trkpt>
      <trkpt lat="45.48016" lon="4.56679">
        <ele>367</ele>
        <time>2012-07-22T08:36:42Z</time>
      </trkpt>
      <trkpt lat="45.48028" lon="4.56697">
        <ele>367</ele>
        <time>2012-07-22T08:36:45Z</time>
      </trkpt>
      <trkpt lat="45.4804" lon="4.56713">
        <ele>367</ele>
        <time>2012-07-22T08:36:49Z</time>
      </trkpt>
      <trkpt lat="45.4805" lon="4.5673">
        <ele>367</ele>
        <time>2012-07-22T08:36:53Z</time>
      </trkpt>
      <trkpt lat="45.48068" lon="4.56748">
        <ele>366</ele>
        <time>2012-07-22T08:36:59Z</time>
      </trkpt>
      <trkpt lat="45.48079" lon="4.56755">
        <ele>366</ele>
        <time>2012-07-22T08:37:02Z</time>
      </trkpt>
      <trkpt lat="45.48087" lon="4.56759">
        <ele>366</ele>
        <time>2012-07-22T08:37:04Z</time>
      </trkpt>
      <trkpt lat="45.48095" lon="4.56763">
        <ele>366</ele>
        <time>2012-07-22T08:37:06Z</time>
      </trkpt>
      <trkpt lat="45.48104" lon="4.56767">
        <ele>366</ele>
        <time>2012-07-22T08:37:08Z</time>
      </trkpt>
      <trkpt lat="45.48113" lon="4.56771">
        <ele>366</ele>
        <time>2012-07-22T08:37:10Z</time>
      </trkpt>
      <trkpt lat="45.48122" lon="4.56777">
        <ele>366</ele>
        <time>2012-07-22T08:37:12Z</time>
      </trkpt>
      <trkpt lat="45.48137" lon="4.56798">
        <ele>366</ele>
        <time>2012-07-22T08:37:16Z</time>
      </trkpt>
      <trkpt lat="45.48142" lon="4.56821">
        <ele>366</ele>
        <time>2012-07-22T08:37:19Z</time>
      </trkpt>
      <trkpt lat="45.48144" lon="4.56848">
        <ele>366</ele>
        <time>2012-07-22T08:37:23Z</time>
      </trkpt>
      <trkpt lat="45.48145" lon="4.56872">
        <ele>366</ele>
        <time>2012-07-22T08:37:27Z</time>
      </trkpt>
      <trkpt lat="45.48147" lon="4.56895">
        <ele>365</ele>
        <time>2012-07-22T08:37:31Z</time>
      </trkpt>
      <trkpt lat="45.4815" lon="4.56918">
        <ele>365</ele>
        <time>2012-07-22T08:37:35Z</time>
      </trkpt>
      <trkpt lat="45.48153" lon="4.56954">
        <ele>366</ele>
        <time>2012-07-22T08:37:41Z</time>
      </trkpt>
      <trkpt lat="45.48155" lon="4.56996">
        <ele>366</ele>
        <time>2012-07-22T08:37:48Z</time>
      </trkpt>
      <trkpt lat="45.48154" lon="4.57021">
        <ele>366</ele>
        <time>2012-07-22T08:37:52Z</time>
      </trkpt>
      <trkpt lat="45.48151" lon="4.57049">
        <ele>366</ele>
        <time>2012-07-22T08:37:56Z</time>
      </trkpt>
      <trkpt lat="45.48149" lon="4.57076">
        <ele>366</ele>
        <time>2012-07-22T08:37:59Z</time>
      </trkpt>
      <trkpt lat="45.48149" lon="4.57105">
        <ele>366</ele>
        <time>2012-07-22T08:38:02Z</time>
      </trkpt>
      <trkpt lat="45.48155" lon="4.57134">
        <ele>365</ele>
        <time>2012-07-22T08:38:05Z</time>
      </trkpt>
      <trkpt lat="45.48159" lon="4.57161">
        <ele>365</ele>
        <time>2012-07-22T08:38:08Z</time>
      </trkpt>
      <trkpt lat="45.48161" lon="4.57185">
        <ele>365</ele>
        <time>2012-07-22T08:38:11Z</time>
      </trkpt>
      <trkpt lat="45.48162" lon="4.57211">
        <ele>365</ele>
        <time>2012-07-22T08:38:15Z</time>
      </trkpt>
      <trkpt lat="45.48159" lon="4.57237">
        <ele>364</ele>
        <time>2012-07-22T08:38:20Z</time>
      </trkpt>
      <trkpt lat="45.4816" lon="4.5726">
        <ele>364</ele>
        <time>2012-07-22T08:38:29Z</time>
      </trkpt>
      <trkpt lat="45.48177" lon="4.57316">
        <ele>413.2</ele>
        <time>2012-07-22T08:38:40Z</time>
      </trkpt>
      <trkpt lat="45.48201" lon="4.57369">
        <ele>411.9</ele>
        <time>2012-07-22T08:38:49Z</time>
      </trkpt>
      <trkpt lat="45.48212" lon="4.57442">
        <ele>362</ele>
        <time>2012-07-22T08:39:01Z</time>
      </trkpt>
      <trkpt lat="45.48215" lon="4.57529">
        <ele>405.7</ele>
        <time>2012-07-22T08:39:24Z</time>
      </trkpt>
      <trkpt lat="45.48204" lon="4.57594">
        <ele>404.9</ele>
        <time>2012-07-22T08:39:31Z</time>
      </trkpt>
      <trkpt lat="45.48188" lon="4.57654">
        <ele>405.8</ele>
        <time>2012-07-22T08:39:39Z</time>
      </trkpt>
      <trkpt lat="45.48115" lon="4.57826">
        <ele>356</ele>
        <time>2012-07-22T08:40:11Z</time>
      </trkpt>
      <trkpt lat="45.48101" lon="4.57848">
        <ele>355</ele>
        <time>2012-07-22T08:40:25Z</time>
      </trkpt>
      <trkpt lat="45.48086" lon="4.57859">
        <ele>355</ele>
        <time>2012-07-22T08:40:34Z</time>
      </trkpt>
      <trkpt lat="45.4807" lon="4.57868">
        <ele>355</ele>
        <time>2012-07-22T08:40:39Z</time>
      </trkpt>
      <trkpt lat="45.48054" lon="4.57878">
        <ele>356</ele>
        <time>2012-07-22T08:40:43Z</time>
      </trkpt>
      <trkpt lat="45.48036" lon="4.57887">
        <ele>356</ele>
        <time>2012-07-22T08:40:47Z</time>
      </trkpt>
      <trkpt lat="45.48017" lon="4.57895">
        <ele>357</ele>
        <time>2012-07-22T08:40:51Z</time>
      </trkpt>
      <trkpt lat="45.48" lon="4.57904">
        <ele>357</ele>
        <time>2012-07-22T08:40:55Z</time>
      </trkpt>
      <trkpt lat="45.47984" lon="4.5791">
        <ele>358</ele>
        <time>2012-07-22T08:40:59Z</time>
      </trkpt>
      <trkpt lat="45.47966" lon="4.5792">
        <ele>358</ele>
        <time>2012-07-22T08:41:05Z</time>
      </trkpt>
      <trkpt lat="45.47953" lon="4.57939">
        <ele>359</ele>
        <time>2012-07-22T08:41:10Z</time>
      </trkpt>
      <trkpt lat="45.47936" lon="4.57975">
        <ele>359</ele>
        <time>2012-07-22T08:41:16Z</time>
      </trkpt>
      <trkpt lat="45.47926" lon="4.57997">
        <ele>360</ele>
        <time>2012-07-22T08:41:19Z</time>
      </trkpt>
      <trkpt lat="45.4791" lon="4.58022">
        <ele>360</ele>
        <time>2012-07-22T08:41:23Z</time>
      </trkpt>
      <trkpt lat="45.47881" lon="4.58059">
        <ele>360</ele>
        <time>2012-07-22T08:41:29Z</time>
      </trkpt>
      <trkpt lat="45.47868" lon="4.5808">
        <ele>361</ele>
        <time>2012-07-22T08:41:32Z</time>
      </trkpt>
      <trkpt lat="45.47849" lon="4.58115">
        <ele>361</ele>
        <time>2012-07-22T08:41:37Z</time>
      </trkpt>
      <trkpt lat="45.4783" lon="4.58158">
        <ele>361</ele>
        <time>2012-07-22T08:41:43Z</time>
      </trkpt>
      <trkpt lat="45.47787" lon="4.58269">
        <ele>361</ele>
        <time>2012-07-22T08:41:56Z</time>
      </trkpt>
      <trkpt lat="45.47775" lon="4.58292">
        <ele>361</ele>
        <time>2012-07-22T08:41:59Z</time>
      </trkpt>
      <trkpt lat="45.47762" lon="4.58313">
        <ele>361</ele>
        <time>2012-07-22T08:42:02Z</time>
      </trkpt>
      <trkpt lat="45.47751" lon="4.58332">
        <ele>360</ele>
        <time>2012-07-22T08:42:05Z</time>
      </trkpt>
      <trkpt lat="45.4774" lon="4.58352">
        <ele>360</ele>
        <time>2012-07-22T08:42:08Z</time>
      </trkpt>
      <trkpt lat="45.47727" lon="4.58371">
        <ele>360</ele>
        <time>2012-07-22T08:42:11Z</time>
      </trkpt>
      <trkpt lat="45.47711" lon="4.58386">
        <ele>360</ele>
        <time>2012-07-22T08:42:14Z</time>
      </trkpt>
      <trkpt lat="45.477" lon="4.58407">
        <ele>360</ele>
        <time>2012-07-22T08:42:17Z</time>
      </trkpt>
      <trkpt lat="45.47674" lon="4.58435">
        <ele>360</ele>
        <time>2012-07-22T08:42:22Z</time>
      </trkpt>
      <trkpt lat="45.47655" lon="4.58448">
        <ele>359</ele>
        <time>2012-07-22T08:42:25Z</time>
      </trkpt>
      <trkpt lat="45.4764" lon="4.58455">
        <ele>359</ele>
        <time>2012-07-22T08:42:27Z</time>
      </trkpt>
      <trkpt lat="45.47607" lon="4.58457">
        <ele>359</ele>
        <time>2012-07-22T08:42:31Z</time>
      </trkpt>
      <trkpt lat="45.47584" lon="4.58437">
        <ele>359</ele>
        <time>2012-07-22T08:42:34Z</time>
      </trkpt>
      <trkpt lat="45.47571" lon="4.58419">
        <ele>358</ele>
        <time>2012-07-22T08:42:36Z</time>
      </trkpt>
      <trkpt lat="45.47557" lon="4.58399">
        <ele>358</ele>
        <time>2012-07-22T08:42:38Z</time>
      </trkpt>
      <trkpt lat="45.47546" lon="4.5838">
        <ele>358</ele>
        <time>2012-07-22T08:42:40Z</time>
      </trkpt>
      <trkpt lat="45.4753" lon="4.58397">
        <ele>358</ele>
        <time>2012-07-22T08:42:45Z</time>
      </trkpt>
      <trkpt lat="45.47534" lon="4.58444">
        <ele>357</ele>
        <time>2012-07-22T08:42:49Z</time>
      </trkpt>
      <trkpt lat="45.47518" lon="4.58477">
        <ele>357</ele>
        <time>2012-07-22T08:42:52Z</time>
      </trkpt>
      <trkpt lat="45.47505" lon="4.58493">
        <ele>357</ele>
        <time>2012-07-22T08:42:54Z</time>
      </trkpt>
      <trkpt lat="45.47482" lon="4.58499">
        <ele>356</ele>
        <time>2012-07-22T08:42:57Z</time>
      </trkpt>
      <trkpt lat="45.47464" lon="4.58486">
        <ele>355</ele>
        <time>2012-07-22T08:42:59Z</time>
      </trkpt>
      <trkpt lat="45.47448" lon="4.58476">
        <ele>355</ele>
        <time>2012-07-22T08:43:01Z</time>
      </trkpt>
      <trkpt lat="45.47431" lon="4.58471">
        <ele>354</ele>
        <time>2012-07-22T08:43:03Z</time>
      </trkpt>
      <trkpt lat="45.47416" lon="4.5847">
        <ele>353</ele>
        <time>2012-07-22T08:43:05Z</time>
      </trkpt>
      <trkpt lat="45.474" lon="4.58472">
        <ele>353</ele>
        <time>2012-07-22T08:43:07Z</time>
      </trkpt>
      <trkpt lat="45.47379" lon="4.58478">
        <ele>352</ele>
        <time>2012-07-22T08:43:10Z</time>
      </trkpt>
      <trkpt lat="45.4736" lon="4.58484">
        <ele>351</ele>
        <time>2012-07-22T08:43:13Z</time>
      </trkpt>
      <trkpt lat="45.47344" lon="4.58481">
        <ele>350</ele>
        <time>2012-07-22T08:43:16Z</time>
      </trkpt>
      <trkpt lat="45.47337" lon="4.58451">
        <ele>350</ele>
        <time>2012-07-22T08:43:32Z</time>
      </trkpt>
    </trkseg>
  </trk>
</gpx>